Observation data for Mertzon on 07/04/2020      Previous  Date  Next       Current Mesonet Observations  Soil Data  Daily Summary Page  Observations in Plain Language
KME1 040500Z 20001KT 22/17 A3003 RMK A01 T02230173  RH  073%=      5-min Rain = 0
KME1 040501Z 20002KT 22/18 A3003 RMK A01 T02230175  RH  074%=      5-min Rain = 0
KME1 040502Z 20002KT 22/18 A3003 RMK A01 T02230175  RH  075%=      5-min Rain = 0
KME1 040503Z 20002KT 22/17 A3003 RMK A01 T02220173  RH  074%=      5-min Rain = 0
KME1 040504Z 20002KT 22/17 A3003 RMK A01 T02220173  RH  074%=      5-min Rain = 0
KME1 040505Z 20002KT 22/17 A3003 RMK A01 T02220172  RH  073%=      5-min Rain = 0
KME1 040506Z 21002KT 22/17 A3003 RMK A01 T02230170  RH  072%=      5-min Rain = 0
KME1 040507Z 20002KT 22/17 A3003 RMK A01 T02230167  RH  070%=      5-min Rain = 0
KME1 040508Z 21003KT 22/17 A3003 RMK A01 T02240166  RH  070%=      5-min Rain = 0
KME1 040509Z 21003KT 22/17 A3003 RMK A01 T02240168  RH  070%=      5-min Rain = 0
KME1 040510Z 21004KT 22/17 A3003 RMK A01 T02240169  RH  071%=      5-min Rain = 0
KME1 040511Z 22004KT 23/17 A3003 RMK A01 T02250170  RH  071%=      5-min Rain = 0
KME1 040512Z 22004KT 23/17 A3003 RMK A01 T02250170  RH  071%=      5-min Rain = 0
KME1 040513Z 22005KT 23/17 A3003 RMK A01 T02250170  RH  071%=      5-min Rain = 0
KME1 040514Z 22006KT 23/17 A3003 RMK A01 T02250169  RH  070%=      5-min Rain = 0
KME1 040515Z 22006KT 23/17 A3003 RMK A01 T02260168  RH  070%=      5-min Rain = 0
KME1 040516Z 22006KT 23/17 A3003 RMK A01 T02260168  RH  070%=      5-min Rain = 0
KME1 040517Z 22006KT 23/17 A3003 RMK A01 T02260167  RH  069%=      5-min Rain = 0
KME1 040518Z 22006KT 23/16 A3003 RMK A01 T02270164  RH  068%=      5-min Rain = 0
KME1 040519Z 22005KT 23/16 A3003 RMK A01 T02270163  RH  067%=      5-min Rain = 0
KME1 040520Z 22005KT 23/16 A3003 RMK A01 T02280163  RH  067%=      5-min Rain = 0
KME1 040521Z 22005KT 23/16 A3003 RMK A01 T02280163  RH  067%=      5-min Rain = 0
KME1 040522Z 22005KT 23/16 A3003 RMK A01 T02290164  RH  067%=      5-min Rain = 0
KME1 040523Z 22005KT 23/17 A3003 RMK A01 T02290165  RH  067%=      5-min Rain = 0
KME1 040524Z 22005KT 23/16 A3003 RMK A01 T02290164  RH  067%=      5-min Rain = 0
KME1 040525Z 22005KT 23/17 A3003 RMK A01 T02290165  RH  067%=      5-min Rain = 0
KME1 040526Z 22005KT 23/17 A3003 RMK A01 T02280165  RH  067%=      5-min Rain = 0
KME1 040527Z 22005KT 23/17 A3003 RMK A01 T02280165  RH  068%=      5-min Rain = 0
KME1 040528Z 22005KT 23/17 A3003 RMK A01 T02280165  RH  068%=      5-min Rain = 0
KME1 040529Z 22005KT 23/16 A3003 RMK A01 T02270163  RH  067%=      5-min Rain = 0
KME1 040530Z 22005KT 23/16 A3003 RMK A01 T02270163  RH  067%=      5-min Rain = 0
KME1 040531Z 22005KT 23/16 A3003 RMK A01 T02280163  RH  067%=      5-min Rain = 0
KME1 040532Z 22005KT 23/16 A3003 RMK A01 T02280164  RH  067%=      5-min Rain = 0
KME1 040533Z 21005KT 23/17 A3003 RMK A01 T02270165  RH  068%=      5-min Rain = 0
KME1 040534Z 21006KT 23/16 A3003 RMK A01 T02270164  RH  067%=      5-min Rain = 0
KME1 040535Z 22006KT 23/16 A3003 RMK A01 T02270164  RH  068%=      5-min Rain = 0
KME1 040536Z 21006KT 23/16 A3003 RMK A01 T02270164  RH  068%=      5-min Rain = 0
KME1 040537Z 22006KT 23/16 A3003 RMK A01 T02260164  RH  068%=      5-min Rain = 0
KME1 040538Z 22006KT 23/16 A3003 RMK A01 T02260163  RH  067%=      5-min Rain = 0
KME1 040539Z 21006KT 23/16 A3003 RMK A01 T02270162  RH  067%=      5-min Rain = 0
KME1 040540Z 21006KT 23/16 A3003 RMK A01 T02270161  RH  066%=      5-min Rain = 0
KME1 040541Z 21006KT 23/16 A3003 RMK A01 T02280160  RH  065%=      5-min Rain = 0
KME1 040542Z 21006KT 23/16 A3003 RMK A01 T02280160  RH  065%=      5-min Rain = 0
KME1 040543Z 21006KT 23/16 A3003 RMK A01 T02290160  RH  065%=      5-min Rain = 0
KME1 040544Z 21006KT 23/16 A3003 RMK A01 T02300159  RH  064%=      5-min Rain = 0
KME1 040545Z 21006KT 23/16 A3003 RMK A01 T02300159  RH  064%=      5-min Rain = 0
KME1 040546Z 21006KT 23/16 A3003 RMK A01 T02300159  RH  064%=      5-min Rain = 0
KME1 040547Z 21006KT 23/16 A3003 RMK A01 T02310159  RH  064%=      5-min Rain = 0
KME1 040548Z 21006KT 23/16 A3003 RMK A01 T02310158  RH  064%=      5-min Rain = 0
KME1 040549Z 21006KT 23/16 A3003 RMK A01 T02310158  RH  063%=      5-min Rain = 0
KME1 040550Z 21006KT 23/16 A3003 RMK A01 T02320158  RH  063%=      5-min Rain = 0
KME1 040551Z 21006KT 23/16 A3003 RMK A01 T02320158  RH  063%=      5-min Rain = 0
KME1 040552Z 21006KT 23/16 A3003 RMK A01 T02330158  RH  063%=      5-min Rain = 0
KME1 040553Z 21006KT 23/16 A3003 RMK A01 T02320158  RH  063%=      5-min Rain = 0
KME1 040554Z 21006KT 23/16 A3003 RMK A01 T02320158  RH  063%=      5-min Rain = 0
KME1 040555Z 21006KT 23/16 A3002 RMK A01 T02320158  RH  063%=      5-min Rain = 0
KME1 040556Z 21006KT 23/16 A3002 RMK A01 T02330158  RH  063%=      5-min Rain = 0
KME1 040557Z 21006KT 23/16 A3002 RMK A01 T02330157  RH  062%=      5-min Rain = 0
KME1 040558Z 21006KT 23/16 A3003 RMK A01 T02330157  RH  062%=      5-min Rain = 0
KME1 040559Z 21005KT 23/16 A3003 RMK A01 T02340157  RH  062%=      5-min Rain = 0
KME1 040600Z 20005KT 23/16 A3003 RMK A01 T02340156  RH  062%=      5-min Rain = 0
KME1 040601Z 20005KT 24/16 A3002 RMK A01 T02350156  RH  061%=      5-min Rain = 0
KME1 040602Z 20004KT 24/16 A3002 RMK A01 T02360157  RH  061%=      5-min Rain = 0
KME1 040603Z 20005KT 24/16 A3002 RMK A01 T02360156  RH  061%=      5-min Rain = 0
KME1 040604Z 20005KT 24/16 A3002 RMK A01 T02360157  RH  061%=      5-min Rain = 0
KME1 040605Z 20005KT 24/16 A3002 RMK A01 T02360156  RH  061%=      5-min Rain = 0
KME1 040606Z 21005KT 24/16 A3002 RMK A01 T02370156  RH  061%=      5-min Rain = 0
KME1 040607Z 20005KT 24/16 A3002 RMK A01 T02360157  RH  061%=      5-min Rain = 0
KME1 040608Z 20005KT 24/16 A3002 RMK A01 T02370157  RH  061%=      5-min Rain = 0
KME1 040609Z 21006KT 24/16 A3002 RMK A01 T02370157  RH  061%=      5-min Rain = 0
KME1 040610Z 21005KT 24/16 A3002 RMK A01 T02360157  RH  061%=      5-min Rain = 0
KME1 040611Z 21006KT 24/16 A3002 RMK A01 T02360156  RH  061%=      5-min Rain = 0
KME1 040612Z 21005KT 24/16 A3002 RMK A01 T02370157  RH  061%=      5-min Rain = 0
KME1 040613Z 21005KT 24/16 A3002 RMK A01 T02360156  RH  061%=      5-min Rain = 0
KME1 040614Z 20005KT 24/16 A3002 RMK A01 T02370156  RH  060%=      5-min Rain = 0
KME1 040615Z 20005KT 24/16 A3002 RMK A01 T02370156  RH  060%=      5-min Rain = 0
KME1 040616Z 20005KT 24/16 A3002 RMK A01 T02370156  RH  060%=      5-min Rain = 0
KME1 040617Z 20004KT 24/16 A3002 RMK A01 T02380156  RH  060%=      5-min Rain = 0
KME1 040618Z 19004KT 24/16 A3002 RMK A01 T02380156  RH  060%=      5-min Rain = 0
KME1 040619Z 20004KT 24/16 A3002 RMK A01 T02380155  RH  060%=      5-min Rain = 0
KME1 040620Z 19004KT 24/16 A3002 RMK A01 T02390156  RH  060%=      5-min Rain = 0
KME1 040621Z 19004KT 24/16 A3002 RMK A01 T02390156  RH  060%=      5-min Rain = 0
KME1 040622Z 19004KT 24/16 A3002 RMK A01 T02400156  RH  059%=      5-min Rain = 0
KME1 040623Z 19004KT 24/16 A3002 RMK A01 T02400156  RH  060%=      5-min Rain = 0
KME1 040624Z 20005KT 24/16 A3002 RMK A01 T02400155  RH  059%=      5-min Rain = 0
KME1 040625Z 20005KT 24/16 A3002 RMK A01 T02400156  RH  059%=      5-min Rain = 0
KME1 040626Z 20005KT 24/16 A3002 RMK A01 T02410156  RH  059%=      5-min Rain = 0
KME1 040627Z 20005KT 24/16 A3002 RMK A01 T02400157  RH  059%=      5-min Rain = 0
KME1 040628Z 20005KT 24/16 A3002 RMK A01 T02400157  RH  060%=      5-min Rain = 0
KME1 040629Z 20005KT 24/16 A3002 RMK A01 T02400158  RH  060%=      5-min Rain = 0
KME1 040630Z 21005KT 24/16 A3002 RMK A01 T02390157  RH  060%=      5-min Rain = 0
KME1 040631Z 20005KT 24/16 A3002 RMK A01 T02390158  RH  060%=      5-min Rain = 0
KME1 040632Z 21005KT 24/16 A3002 RMK A01 T02390158  RH  061%=      5-min Rain = 0
KME1 040633Z 21005KT 24/16 A3002 RMK A01 T02380158  RH  061%=      5-min Rain = 0
KME1 040634Z 20005KT 24/16 A3002 RMK A01 T02380158  RH  061%=      5-min Rain = 0
KME1 040635Z 21005KT 24/16 A3002 RMK A01 T02380158  RH  061%=      5-min Rain = 0
KME1 040636Z 20005KT 24/16 A3002 RMK A01 T02380158  RH  061%=      5-min Rain = 0
KME1 040637Z 20005KT 24/16 A3002 RMK A01 T02390158  RH  060%=      5-min Rain = 0
KME1 040638Z 20006KT 24/16 A3002 RMK A01 T02400158  RH  060%=      5-min Rain = 0
KME1 040639Z 20006KT 24/16 A3002 RMK A01 T02400157  RH  060%=      5-min Rain = 0
KME1 040640Z 20005KT 24/16 A3002 RMK A01 T02420159  RH  060%=      5-min Rain = 0
KME1 040641Z 20005KT 24/16 A3002 RMK A01 T02420159  RH  060%=      5-min Rain = 0
KME1 040642Z 20005KT 24/16 A3002 RMK A01 T02420159  RH  060%=      5-min Rain = 0
KME1 040643Z 20005KT 24/16 A3002 RMK A01 T02410159  RH  060%=      5-min Rain = 0
KME1 040644Z 20005KT 24/16 A3002 RMK A01 T02410159  RH  060%=      5-min Rain = 0
KME1 040645Z 20005KT 24/16 A3002 RMK A01 T02410158  RH  060%=      5-min Rain = 0
KME1 040646Z 20005KT 24/16 A3002 RMK A01 T02410160  RH  060%=      5-min Rain = 0
KME1 040647Z 20005KT 24/16 A3002 RMK A01 T02410159  RH  060%=      5-min Rain = 0
KME1 040648Z 20005KT 24/16 A3002 RMK A01 T02410159  RH  060%=      5-min Rain = 0
KME1 040649Z 20005KT 24/16 A3002 RMK A01 T02410160  RH  060%=      5-min Rain = 0
KME1 040650Z 20006KT 24/16 A3002 RMK A01 T02410160  RH  061%=      5-min Rain = 0
KME1 040651Z 20005KT 24/16 A3002 RMK A01 T02410161  RH  061%=      5-min Rain = 0
KME1 040652Z 20006KT 24/16 A3001 RMK A01 T02410161  RH  061%=      5-min Rain = 0
KME1 040653Z 20006KT 24/16 A3001 RMK A01 T02400161  RH  061%=      5-min Rain = 0
KME1 040654Z 20006KT 24/16 A3001 RMK A01 T02400161  RH  061%=      5-min Rain = 0
KME1 040655Z 20007KT 24/16 A3001 RMK A01 T02400161  RH  061%=      5-min Rain = 0
KME1 040656Z 20007KT 24/16 A3001 RMK A01 T02410160  RH  061%=      5-min Rain = 0
KME1 040657Z 20007KT 24/16 A3001 RMK A01 T02420160  RH  060%=      5-min Rain = 0
KME1 040658Z 20006KT 24/16 A3001 RMK A01 T02430161  RH  060%=      5-min Rain = 0
KME1 040659Z 20007KT 24/16 A3001 RMK A01 T02430161  RH  060%=      5-min Rain = 0
KME1 040700Z 21007KT 24/16 A3001 RMK A01 T02430161  RH  060%=      5-min Rain = 0
KME1 040701Z 20007KT 24/16 A3001 RMK A01 T02430161  RH  060%=      5-min Rain = 0
KME1 040702Z 20007KT 24/16 A3001 RMK A01 T02440161  RH  060%=      5-min Rain = 0
KME1 040703Z 20006KT 25/16 A3001 RMK A01 T02450162  RH  060%=      5-min Rain = 0
KME1 040704Z 20006KT 25/16 A3001 RMK A01 T02450161  RH  060%=      5-min Rain = 0
KME1 040705Z 20006KT 25/16 A3001 RMK A01 T02450161  RH  059%=      5-min Rain = 0
KME1 040706Z 20005KT 25/16 A3001 RMK A01 T02460162  RH  060%=      5-min Rain = 0
KME1 040707Z 19005KT 25/16 A3001 RMK A01 T02460162  RH  060%=      5-min Rain = 0
KME1 040708Z 20005KT 25/16 A3001 RMK A01 T02460162  RH  060%=      5-min Rain = 0
KME1 040709Z 19005KT 25/16 A3001 RMK A01 T02460162  RH  059%=      5-min Rain = 0
KME1 040710Z 19005KT 25/16 A3001 RMK A01 T02460161  RH  059%=      5-min Rain = 0
KME1 040711Z 19005KT 25/16 A3001 RMK A01 T02460162  RH  059%=      5-min Rain = 0
KME1 040712Z 19005KT 25/16 A3001 RMK A01 T02460162  RH  059%=      5-min Rain = 0
KME1 040713Z 19005KT 25/16 A3001 RMK A01 T02460162  RH  060%=      5-min Rain = 0
KME1 040714Z 19005KT 25/16 A3001 RMK A01 T02460163  RH  060%=      5-min Rain = 0
KME1 040715Z 18004KT 25/16 A3001 RMK A01 T02460163  RH  060%=      5-min Rain = 0
KME1 040716Z 18004KT 25/16 A3001 RMK A01 T02450162  RH  060%=      5-min Rain = 0
KME1 040717Z 19004KT 25/16 A3001 RMK A01 T02460163  RH  060%=      5-min Rain = 0
KME1 040718Z 19005KT 25/16 A3001 RMK A01 T02460163  RH  060%=      5-min Rain = 0
KME1 040719Z 19005KT 25/16 A3001 RMK A01 T02460163  RH  060%=      5-min Rain = 0
KME1 040720Z 19005KT 25/16 A3001 RMK A01 T02460164  RH  060%=      5-min Rain = 0
KME1 040721Z 20004KT 25/16 A3001 RMK A01 T02450164  RH  060%=      5-min Rain = 0
KME1 040722Z 19005KT 25/16 A3001 RMK A01 T02450164  RH  061%=      5-min Rain = 0
KME1 040723Z 19005KT 25/16 A3001 RMK A01 T02450164  RH  060%=      5-min Rain = 0
KME1 040724Z 19005KT 25/16 A3001 RMK A01 T02450163  RH  060%=      5-min Rain = 0
KME1 040725Z 19005KT 25/16 A3001 RMK A01 T02450163  RH  060%=      5-min Rain = 0
KME1 040726Z 19005KT 25/16 A3001 RMK A01 T02460164  RH  060%=      5-min Rain = 0
KME1 040727Z 19006KT 25/16 A3001 RMK A01 T02450164  RH  060%=      5-min Rain = 0
KME1 040728Z 19006KT 25/16 A3001 RMK A01 T02460164  RH  060%=      5-min Rain = 0
KME1 040729Z 20005KT 25/17 A3001 RMK A01 T02450165  RH  061%=      5-min Rain = 0
KME1 040730Z 20006KT 25/17 A3001 RMK A01 T02450165  RH  061%=      5-min Rain = 0
KME1 040731Z 19006KT 25/17 A3001 RMK A01 T02450165  RH  061%=      5-min Rain = 0
KME1 040732Z 20006KT 24/17 A30 RMK A01 T02440165  RH  061%=      5-min Rain = 0
KME1 040733Z 20006KT 24/17 A30 RMK A01 T02440165  RH  061%=      5-min Rain = 0
KME1 040734Z 20005KT 24/17 A3001 RMK A01 T02430165  RH  062%=      5-min Rain = 0
KME1 040735Z 20005KT 24/17 A3001 RMK A01 T02420165  RH  062%=      5-min Rain = 0
KME1 040736Z 20005KT 24/17 A3001 RMK A01 T02410165  RH  062%=      5-min Rain = 0
KME1 040737Z 20005KT 24/17 A3001 RMK A01 T02410165  RH  062%=      5-min Rain = 0
KME1 040738Z 20004KT 24/17 A3001 RMK A01 T02400165  RH  063%=      5-min Rain = 0
KME1 040739Z 20005KT 24/17 A3001 RMK A01 T02400165  RH  063%=      5-min Rain = 0
KME1 040740Z 20005KT 24/17 A3001 RMK A01 T02400165  RH  063%=      5-min Rain = 0
KME1 040741Z 20005KT 24/17 A3001 RMK A01 T02400165  RH  063%=      5-min Rain = 0
KME1 040742Z 20005KT 24/17 A3001 RMK A01 T02400166  RH  063%=      5-min Rain = 0
KME1 040743Z 20005KT 24/17 A3001 RMK A01 T02400166  RH  063%=      5-min Rain = 0
KME1 040744Z 20005KT 24/17 A3001 RMK A01 T02400166  RH  063%=      5-min Rain = 0
KME1 040745Z 20005KT 24/17 A3001 RMK A01 T02390166  RH  064%=      5-min Rain = 0
KME1 040746Z 20004KT 24/17 A3001 RMK A01 T02390166  RH  064%=      5-min Rain = 0
KME1 040747Z 20005KT 24/17 A3001 RMK A01 T02380166  RH  064%=      5-min Rain = 0
KME1 040748Z 20005KT 24/17 A3001 RMK A01 T02370166  RH  064%=      5-min Rain = 0
KME1 040749Z 20005KT 24/17 A3001 RMK A01 T02370166  RH  064%=      5-min Rain = 0
KME1 040750Z 20005KT 24/17 A3001 RMK A01 T02370166  RH  064%=      5-min Rain = 0
KME1 040751Z 19004KT 24/17 A3001 RMK A01 T02370166  RH  065%=      5-min Rain = 0
KME1 040752Z 19005KT 24/17 A3001 RMK A01 T02370166  RH  065%=      5-min Rain = 0
KME1 040753Z 19005KT 24/17 A3001 RMK A01 T02370166  RH  064%=      5-min Rain = 0
KME1 040754Z 19005KT 24/17 A3001 RMK A01 T02380166  RH  064%=      5-min Rain = 0
KME1 040755Z 19004KT 24/17 A3001 RMK A01 T02380166  RH  064%=      5-min Rain = 0
KME1 040756Z 19004KT 24/17 A3001 RMK A01 T02380166  RH  064%=      5-min Rain = 0
KME1 040757Z 19004KT 24/17 A3001 RMK A01 T02390166  RH  064%=      5-min Rain = 0
KME1 040758Z 19004KT 24/17 A3001 RMK A01 T02400166  RH  063%=      5-min Rain = 0
KME1 040759Z 19005KT 24/17 A3001 RMK A01 T02400166  RH  063%=      5-min Rain = 0
KME1 040800Z 19005KT 24/17 A3001 RMK A01 T02410166  RH  063%=      5-min Rain = 0
KME1 040801Z 19004KT 24/17 A3001 RMK A01 T02410167  RH  063%=      5-min Rain = 0
KME1 040802Z 19005KT 24/17 A3001 RMK A01 T02410167  RH  063%=      5-min Rain = 0
KME1 040803Z 18005KT 24/17 A3001 RMK A01 T02420167  RH  063%=      5-min Rain = 0
KME1 040804Z 19005KT 24/17 A3001 RMK A01 T02430167  RH  063%=      5-min Rain = 0
KME1 040805Z 19006KT 24/17 A3001 RMK A01 T02440167  RH  062%=      5-min Rain = 0
KME1 040806Z 19005KT 24/17 A3001 RMK A01 T02440168  RH  062%=      5-min Rain = 0
KME1 040807Z 19005KT 24/17 A3001 RMK A01 T02440168  RH  062%=      5-min Rain = 0
KME1 040808Z 19006KT 24/17 A3001 RMK A01 T02440168  RH  062%=      5-min Rain = 0
KME1 040809Z 19006KT 24/17 A3001 RMK A01 T02440167  RH  062%=      5-min Rain = 0
KME1 040810Z 19006KT 25/17 A3001 RMK A01 T02450168  RH  062%=      5-min Rain = 0
KME1 040811Z 19006KT 25/17 A3001 RMK A01 T02450168  RH  062%=      5-min Rain = 0
KME1 040812Z 19006KT 25/17 A3001 RMK A01 T02460168  RH  062%=      5-min Rain = 0
KME1 040813Z 20006KT 25/17 A3001 RMK A01 T02450167  RH  062%=      5-min Rain = 0
KME1 040814Z 20006KT 25/17 A3001 RMK A01 T02450167  RH  062%=      5-min Rain = 0
KME1 040815Z 20005KT 25/17 A3001 RMK A01 T02450168  RH  062%=      5-min Rain = 0
KME1 040816Z 20006KT 25/17 A3001 RMK A01 T02450168  RH  062%=      5-min Rain = 0
KME1 040817Z 20005KT 25/17 A3001 RMK A01 T02450168  RH  062%=      5-min Rain = 0
KME1 040818Z 20006KT 24/17 A3001 RMK A01 T02440168  RH  062%=      5-min Rain = 0
KME1 040819Z 19006KT 24/17 A3001 RMK A01 T02440168  RH  062%=      5-min Rain = 0
KME1 040820Z 19005KT 24/17 A3001 RMK A01 T02440168  RH  063%=      5-min Rain = 0
KME1 040821Z 20006KT 24/17 A3001 RMK A01 T02440168  RH  063%=      5-min Rain = 0
KME1 040822Z 19006KT 24/17 A3001 RMK A01 T02440168  RH  063%=      5-min Rain = 0
KME1 040823Z 20005KT 24/17 A3001 RMK A01 T02430168  RH  063%=      5-min Rain = 0
KME1 040824Z 19005KT 24/17 A3001 RMK A01 T02440168  RH  063%=      5-min Rain = 0
KME1 040825Z 19005KT 24/17 A3001 RMK A01 T02440168  RH  063%=      5-min Rain = 0
KME1 040826Z 19006KT 24/17 A3001 RMK A01 T02440169  RH  063%=      5-min Rain = 0
KME1 040827Z 19006KT 24/17 A3001 RMK A01 T02440168  RH  063%=      5-min Rain = 0
KME1 040828Z 20005KT 24/17 A3001 RMK A01 T02440168  RH  063%=      5-min Rain = 0
KME1 040829Z 19005KT 24/17 A3001 RMK A01 T02440168  RH  062%=      5-min Rain = 0
KME1 040830Z 18006KT 24/17 A3001 RMK A01 T02440168  RH  063%=      5-min Rain = 0
KME1 040831Z 19006KT 24/17 A3001 RMK A01 T02440168  RH  063%=      5-min Rain = 0
KME1 040832Z 19006KT 25/17 A3001 RMK A01 T02450168  RH  062%=      5-min Rain = 0
KME1 040833Z 18006KT 25/17 A3001 RMK A01 T02450168  RH  062%=      5-min Rain = 0
KME1 040834Z 19005KT 25/17 A3001 RMK A01 T02460169  RH  062%=      5-min Rain = 0
KME1 040835Z 19005KT 25/17 A3001 RMK A01 T02450170  RH  063%=      5-min Rain = 0
KME1 040836Z 19005KT 25/17 A3001 RMK A01 T02450170  RH  063%=      5-min Rain = 0
KME1 040837Z 19005KT 25/17 A3001 RMK A01 T02450169  RH  063%=      5-min Rain = 0
KME1 040838Z 19006KT 25/17 A3001 RMK A01 T02450170  RH  063%=      5-min Rain = 0
KME1 040839Z 19006KT 24/17 A3001 RMK A01 T02440170  RH  063%=      5-min Rain = 0
KME1 040840Z 19006KT 24/17 A3001 RMK A01 T02440170  RH  063%=      5-min Rain = 0
KME1 040841Z 19006KT 25/17 A3001 RMK A01 T02450170  RH  063%=      5-min Rain = 0
KME1 040842Z 18006KT 25/17 A3001 RMK A01 T02450169  RH  063%=      5-min Rain = 0
KME1 040843Z 18006KT 25/17 A3001 RMK A01 T02460169  RH  062%=      5-min Rain = 0
KME1 040844Z 18006KT 25/17 A3001 RMK A01 T02470170  RH  062%=      5-min Rain = 0
KME1 040845Z 18007KT 25/17 A3001 RMK A01 T02470171  RH  063%=      5-min Rain = 0
KME1 040846Z 18006KT 25/17 A3001 RMK A01 T02470171  RH  063%=      5-min Rain = 0
KME1 040847Z 18006KT 25/17 A3001 RMK A01 T02470171  RH  063%=      5-min Rain = 0
KME1 040848Z 18007KT 25/17 A3001 RMK A01 T02470171  RH  063%=      5-min Rain = 0
KME1 040849Z 18007KT 25/17 A3001 RMK A01 T02470171  RH  063%=      5-min Rain = 0
KME1 040850Z 18007KT 25/17 A3001 RMK A01 T02470171  RH  063%=      5-min Rain = 0
KME1 040851Z 18007KT 25/17 A3001 RMK A01 T02470171  RH  063%=      5-min Rain = 0
KME1 040852Z 18007KT 25/17 A3001 RMK A01 T02470171  RH  063%=      5-min Rain = 0
KME1 040853Z 19006KT 25/17 A3001 RMK A01 T02480172  RH  063%=      5-min Rain = 0
KME1 040854Z 19007KT 25/17 A3001 RMK A01 T02470172  RH  063%=      5-min Rain = 0
KME1 040855Z 19007KT 25/17 A30 RMK A01 T02480172  RH  063%=      5-min Rain = 0
KME1 040856Z 19008KT 25/17 A30 RMK A01 T02480171  RH  063%=      5-min Rain = 0
KME1 040857Z 19008KT 25/17 A30 RMK A01 T02490171  RH  062%=      5-min Rain = 0
KME1 040858Z 18006KT 25/17 A30 RMK A01 T02500171  RH  062%=      5-min Rain = 0
KME1 040859Z 19005KT 25/17 A30 RMK A01 T02500172  RH  062%=      5-min Rain = 0
KME1 040900Z 19006KT 25/17 A30 RMK A01 T02490172  RH  062%=      5-min Rain = 0
KME1 040901Z 19006KT 25/17 A30 RMK A01 T02490172  RH  062%=      5-min Rain = 0
KME1 040902Z 19009KT 25/17 A30 RMK A01 T02480172  RH  062%=      5-min Rain = 0
KME1 040903Z 19007KT 25/17 A30 RMK A01 T02490171  RH  062%=      5-min Rain = 0
KME1 040904Z 20006KT 25/17 A30 RMK A01 T02500172  RH  062%=      5-min Rain = 0
KME1 040905Z 19007KT 25/17 A30 RMK A01 T02500172  RH  062%=      5-min Rain = 0
KME1 040906Z 19007KT 25/17 A3001 RMK A01 T02490172  RH  062%=      5-min Rain = 0
KME1 040907Z 19006KT 25/17 A3001 RMK A01 T02490172  RH  062%=      5-min Rain = 0
KME1 040908Z 20006KT 25/17 A3001 RMK A01 T02490173  RH  062%=      5-min Rain = 0
KME1 040909Z 19007KT 25/17 A3001 RMK A01 T02490173  RH  063%=      5-min Rain = 0
KME1 040910Z 20006KT 25/17 A3001 RMK A01 T02480173  RH  063%=      5-min Rain = 0
KME1 040911Z 20008KT 25/17 A30 RMK A01 T02480173  RH  063%=      5-min Rain = 0
KME1 040912Z 20007KT 25/17 A30 RMK A01 T02490172  RH  062%=      5-min Rain = 0
KME1 040913Z 20009KT 25/17 A30 RMK A01 T02500173  RH  062%=      5-min Rain = 0
KME1 040914Z 20008KT 25/17 A30 RMK A01 T02490173  RH  062%=      5-min Rain = 0
KME1 040915Z 19007KT 25/17 A30 RMK A01 T02490173  RH  063%=      5-min Rain = 0
KME1 040916Z 19007KT 25/17 A30 RMK A01 T02490173  RH  063%=      5-min Rain = 0
KME1 040917Z 20006KT 25/17 A3001 RMK A01 T02490174  RH  063%=      5-min Rain = 0
KME1 040918Z 19009KT 25/17 A3001 RMK A01 T02490174  RH  063%=      5-min Rain = 0
KME1 040919Z 20008KT 25/17 A3001 RMK A01 T02490173  RH  063%=      5-min Rain = 0
KME1 040920Z 19008KT 25/17 A3001 RMK A01 T02490174  RH  063%=      5-min Rain = 0
KME1 040921Z 20009KT 25/17 A3001 RMK A01 T02500174  RH  063%=      5-min Rain = 0
KME1 040922Z 20008KT 25/17 A3001 RMK A01 T02490174  RH  063%=      5-min Rain = 0
KME1 040923Z 20009KT 25/17 A3001 RMK A01 T02490174  RH  063%=      5-min Rain = 0
KME1 040924Z 20008KT 25/17 A3001 RMK A01 T02490174  RH  063%=      5-min Rain = 0
KME1 040925Z 20006KT 25/17 A3001 RMK A01 T02490174  RH  063%=      5-min Rain = 0
KME1 040926Z 20008KT 25/18 A3001 RMK A01 T02490175  RH  063%=      5-min Rain = 0
KME1 040927Z 20007KT 25/18 A3001 RMK A01 T02490175  RH  063%=      5-min Rain = 0
KME1 040928Z 20007KT 25/18 A3001 RMK A01 T02490175  RH  063%=      5-min Rain = 0
KME1 040929Z 20007KT 25/18 A3001 RMK A01 T02490175  RH  064%=      5-min Rain = 0
KME1 040930Z 20008KT 25/18 A3001 RMK A01 T02480175  RH  064%=      5-min Rain = 0
KME1 040931Z 20007KT 25/18 A3001 RMK A01 T02480175  RH  064%=      5-min Rain = 0
KME1 040932Z 20006KT 25/18 A3001 RMK A01 T02480175  RH  064%=      5-min Rain = 0
KME1 040933Z 21006KT 25/18 A3001 RMK A01 T02480175  RH  064%=      5-min Rain = 0
KME1 040934Z 21006KT 25/18 A3001 RMK A01 T02470175  RH  064%=      5-min Rain = 0
KME1 040935Z 21008KT 25/18 A3001 RMK A01 T02460175  RH  065%=      5-min Rain = 0
KME1 040936Z 21007KT 25/18 A3001 RMK A01 T02460175  RH  065%=      5-min Rain = 0
KME1 040937Z 21007KT 25/18 A3001 RMK A01 T02460176  RH  065%=      5-min Rain = 0
KME1 040938Z 20007KT 25/18 A3001 RMK A01 T02450175  RH  065%=      5-min Rain = 0
KME1 040939Z 21007KT 24/18 A3001 RMK A01 T02440175  RH  065%=      5-min Rain = 0
KME1 040940Z 20007KT 24/18 A3001 RMK A01 T02440175  RH  065%=      5-min Rain = 0
KME1 040941Z 21007KT 24/18 A3001 RMK A01 T02440176  RH  065%=      5-min Rain = 0
KME1 040942Z 20007KT 24/18 A3001 RMK A01 T02440176  RH  066%=      5-min Rain = 0
KME1 040943Z 21008KT 24/18 A30 RMK A01 T02440176  RH  066%=      5-min Rain = 0
KME1 040944Z 21008KT 24/18 A30 RMK A01 T02440176  RH  066%=      5-min Rain = 0
KME1 040945Z 21007KT 24/18 A30 RMK A01 T02440176  RH  066%=      5-min Rain = 0
KME1 040946Z 21008KT 24/18 A30 RMK A01 T02440176  RH  066%=      5-min Rain = 0
KME1 040947Z 21008KT 24/18 A30 RMK A01 T02430176  RH  066%=      5-min Rain = 0
KME1 040948Z 21008KT 24/18 A30 RMK A01 T02430176  RH  066%=      5-min Rain = 0
KME1 040949Z 21008KT 24/18 A30 RMK A01 T02430176  RH  066%=      5-min Rain = 0
KME1 040950Z 21008KT 24/18 A30 RMK A01 T02430176  RH  066%=      5-min Rain = 0
KME1 040951Z 21009KT 24/18 A30 RMK A01 T02430176  RH  066%=      5-min Rain = 0
KME1 040952Z 20009KT 24/18 A30 RMK A01 T02440176  RH  066%=      5-min Rain = 0
KME1 040953Z 20009KT 24/18 A30 RMK A01 T02440176  RH  066%=      5-min Rain = 0
KME1 040954Z 20008KT 25/18 A30 RMK A01 T02450176  RH  066%=      5-min Rain = 0
KME1 040955Z 20007KT 25/18 A30 RMK A01 T02450176  RH  066%=      5-min Rain = 0
KME1 040956Z 20007KT 25/18 A30 RMK A01 T02450177  RH  066%=      5-min Rain = 0
KME1 040957Z 20007KT 25/18 A30 RMK A01 T02450176  RH  066%=      5-min Rain = 0
KME1 040958Z 19009KT 25/18 A30 RMK A01 T02450177  RH  066%=      5-min Rain = 0
KME1 040959Z 20006KT 25/18 A3001 RMK A01 T02450177  RH  066%=      5-min Rain = 0
KME1 041000Z 20006KT 25/18 A3001 RMK A01 T02450177  RH  066%=      5-min Rain = 0
KME1 041001Z 20007KT 25/18 A3001 RMK A01 T02450177  RH  066%=      5-min Rain = 0
KME1 041002Z 20006KT 25/18 A3001 RMK A01 T02450177  RH  066%=      5-min Rain = 0
KME1 041003Z 20005KT 25/18 A3001 RMK A01 T02450177  RH  066%=      5-min Rain = 0
KME1 041004Z 19006KT 24/18 A3001 RMK A01 T02440178  RH  066%=      5-min Rain = 0
KME1 041005Z 20007KT 24/18 A3001 RMK A01 T02440177  RH  066%=      5-min Rain = 0
KME1 041006Z 21006KT 24/18 A3001 RMK A01 T02430178  RH  067%=      5-min Rain = 0
KME1 041007Z 21007KT 24/18 A3001 RMK A01 T02430178  RH  067%=      5-min Rain = 0
KME1 041008Z 20008KT 24/18 A3001 RMK A01 T02430178  RH  067%=      5-min Rain = 0
KME1 041009Z 20007KT 24/18 A3001 RMK A01 T02420178  RH  067%=      5-min Rain = 0
KME1 041010Z 21008KT 24/18 A3001 RMK A01 T02420178  RH  068%=      5-min Rain = 0
KME1 041011Z 21007KT 24/18 A30 RMK A01 T02410177  RH  067%=      5-min Rain = 0
KME1 041012Z 20007KT 24/18 A30 RMK A01 T02410177  RH  068%=      5-min Rain = 0
KME1 041013Z 21005KT 24/18 A30 RMK A01 T02410178  RH  068%=      5-min Rain = 0
KME1 041014Z 21007KT 24/18 A3001 RMK A01 T02410178  RH  068%=      5-min Rain = 0
KME1 041015Z 21007KT 24/18 A3001 RMK A01 T02400178  RH  068%=      5-min Rain = 0
KME1 041016Z 21007KT 24/18 A3001 RMK A01 T02400178  RH  068%=      5-min Rain = 0
KME1 041017Z 21007KT 24/18 A3001 RMK A01 T02400178  RH  068%=      5-min Rain = 0
KME1 041018Z 21007KT 24/18 A3001 RMK A01 T02400178  RH  068%=      5-min Rain = 0
KME1 041019Z 21006KT 24/18 A3001 RMK A01 T02400178  RH  068%=      5-min Rain = 0
KME1 041020Z 21007KT 24/18 A3001 RMK A01 T02390178  RH  069%=      5-min Rain = 0
KME1 041021Z 20007KT 24/18 A3001 RMK A01 T02380178  RH  069%=      5-min Rain = 0
KME1 041022Z 20007KT 24/18 A3001 RMK A01 T02370178  RH  069%=      5-min Rain = 0
KME1 041023Z 20006KT 24/18 A3001 RMK A01 T02370178  RH  069%=      5-min Rain = 0
KME1 041024Z 20007KT 24/18 A3001 RMK A01 T02370178  RH  069%=      5-min Rain = 0
KME1 041025Z 20006KT 24/18 A3001 RMK A01 T02370178  RH  069%=      5-min Rain = 0
KME1 041026Z 20006KT 24/18 A3001 RMK A01 T02370178  RH  069%=      5-min Rain = 0
KME1 041027Z 19007KT 24/18 A3001 RMK A01 T02370178  RH  070%=      5-min Rain = 0
KME1 041028Z 20006KT 24/18 A3001 RMK A01 T02360178  RH  070%=      5-min Rain = 0
KME1 041029Z 20006KT 24/18 A3001 RMK A01 T02360178  RH  070%=      5-min Rain = 0
KME1 041030Z 20007KT 24/18 A3001 RMK A01 T02360177  RH  070%=      5-min Rain = 0
KME1 041031Z 20007KT 24/18 A3001 RMK A01 T02360177  RH  069%=      5-min Rain = 0
KME1 041032Z 20006KT 24/18 A3001 RMK A01 T02370177  RH  069%=      5-min Rain = 0
KME1 041033Z 20006KT 24/18 A30 RMK A01 T02370177  RH  069%=      5-min Rain = 0
KME1 041034Z 20006KT 24/18 A30 RMK A01 T02360177  RH  069%=      5-min Rain = 0
KME1 041035Z 20006KT 24/18 A30 RMK A01 T02360177  RH  070%=      5-min Rain = 0
KME1 041036Z 20007KT 24/18 A30 RMK A01 T02360177  RH  070%=      5-min Rain = 0
KME1 041037Z 20006KT 24/18 A30 RMK A01 T02360177  RH  070%=      5-min Rain = 0
KME1 041038Z 20007KT 24/18 A30 RMK A01 T02350177  RH  070%=      5-min Rain = 0
KME1 041039Z 20007KT 24/18 A30 RMK A01 T02350177  RH  070%=      5-min Rain = 0
KME1 041040Z 20007KT 24/18 A30 RMK A01 T02350177  RH  070%=      5-min Rain = 0
KME1 041041Z 20007KT 24/18 A30 RMK A01 T02350177  RH  070%=      5-min Rain = 0
KME1 041042Z 20007KT 23/18 A30 RMK A01 T02340177  RH  070%=      5-min Rain = 0
KME1 041043Z 20007KT 23/18 A30 RMK A01 T02340177  RH  071%=      5-min Rain = 0
KME1 041044Z 20008KT 23/18 A30 RMK A01 T02330177  RH  071%=      5-min Rain = 0
KME1 041045Z 20007KT 23/18 A3001 RMK A01 T02340177  RH  071%=      5-min Rain = 0
KME1 041046Z 20007KT 23/18 A3001 RMK A01 T02330177  RH  071%=      5-min Rain = 0
KME1 041047Z 20007KT 23/18 A3001 RMK A01 T02320177  RH  071%=      5-min Rain = 0
KME1 041048Z 20007KT 23/18 A3001 RMK A01 T02320177  RH  071%=      5-min Rain = 0
KME1 041049Z 20007KT 23/18 A3001 RMK A01 T02320177  RH  071%=      5-min Rain = 0
KME1 041050Z 20007KT 23/18 A3001 RMK A01 T02320177  RH  071%=      5-min Rain = 0
KME1 041051Z 20007KT 23/18 A3001 RMK A01 T02320177  RH  071%=      5-min Rain = 0
KME1 041052Z 20006KT 23/18 A3001 RMK A01 T02320178  RH  071%=      5-min Rain = 0
KME1 041053Z 19006KT 23/18 A3001 RMK A01 T02320177  RH  071%=      5-min Rain = 0
KME1 041054Z 19006KT 23/18 A3002 RMK A01 T02310177  RH  072%=      5-min Rain = 0
KME1 041055Z 19006KT 23/18 A3002 RMK A01 T02310177  RH  072%=      5-min Rain = 0
KME1 041056Z 19006KT 23/18 A3002 RMK A01 T02310177  RH  072%=      5-min Rain = 0
KME1 041057Z 19006KT 23/18 A3002 RMK A01 T02310178  RH  072%=      5-min Rain = 0
KME1 041058Z 19006KT 23/18 A3002 RMK A01 T02300177  RH  072%=      5-min Rain = 0
KME1 041059Z 19006KT 23/18 A3001 RMK A01 T02300177  RH  072%=      5-min Rain = 0
KME1 041100Z 19006KT 23/18 A3001 RMK A01 T02300177  RH  072%=      5-min Rain = 0
KME1 041101Z 20006KT 23/18 A3001 RMK A01 T02300177  RH  072%=      5-min Rain = 0
KME1 041102Z 20006KT 23/18 A3001 RMK A01 T02300177  RH  072%=      5-min Rain = 0
KME1 041103Z 20006KT 23/18 A3001 RMK A01 T02290177  RH  072%=      5-min Rain = 0
KME1 041104Z 20006KT 23/18 A3001 RMK A01 T02290177  RH  073%=      5-min Rain = 0
KME1 041105Z 20006KT 23/18 A3001 RMK A01 T02280177  RH  073%=      5-min Rain = 0
KME1 041106Z 20005KT 23/18 A3001 RMK A01 T02280177  RH  073%=      5-min Rain = 0
KME1 041107Z 21006KT 23/18 A3001 RMK A01 T02270177  RH  073%=      5-min Rain = 0
KME1 041108Z 21006KT 23/18 A3001 RMK A01 T02270177  RH  074%=      5-min Rain = 0
KME1 041109Z 21006KT 23/18 A3001 RMK A01 T02260177  RH  074%=      5-min Rain = 0
KME1 041110Z 21006KT 23/18 A3001 RMK A01 T02260177  RH  074%=      5-min Rain = 0
KME1 041111Z 20006KT 23/18 A3001 RMK A01 T02260178  RH  074%=      5-min Rain = 0
KME1 041112Z 20006KT 23/18 A3001 RMK A01 T02260178  RH  074%=      5-min Rain = 0
KME1 041113Z 20006KT 23/18 A3001 RMK A01 T02260178  RH  074%=      5-min Rain = 0
KME1 041114Z 19005KT 23/18 A3001 RMK A01 T02260177  RH  074%=      5-min Rain = 0
KME1 041115Z 19005KT 23/18 A3001 RMK A01 T02260177  RH  074%=      5-min Rain = 0
KME1 041116Z 19005KT 23/18 A3001 RMK A01 T02260177  RH  074%=      5-min Rain = 0
KME1 041117Z 19004KT 23/18 A3002 RMK A01 T02260177  RH  074%=      5-min Rain = 0
KME1 041118Z 19004KT 23/18 A3002 RMK A01 T02260178  RH  074%=      5-min Rain = 0
KME1 041119Z 19005KT 23/18 A3002 RMK A01 T02250178  RH  075%=      5-min Rain = 0
KME1 041120Z 18004KT 22/18 A3002 RMK A01 T02240178  RH  075%=      5-min Rain = 0
KME1 041121Z 18004KT 22/18 A3002 RMK A01 T02240178  RH  075%=      5-min Rain = 0
KME1 041122Z 18004KT 22/18 A3002 RMK A01 T02240178  RH  075%=      5-min Rain = 0
KME1 041123Z 19004KT 22/18 A3002 RMK A01 T02240178  RH  075%=      5-min Rain = 0
KME1 041124Z 18005KT 22/18 A3002 RMK A01 T02240178  RH  075%=      5-min Rain = 0
KME1 041125Z 18005KT 22/18 A3002 RMK A01 T02240178  RH  075%=      5-min Rain = 0
KME1 041126Z 18005KT 22/18 A3002 RMK A01 T02230178  RH  075%=      5-min Rain = 0
KME1 041127Z 19005KT 22/18 A3002 RMK A01 T02240178  RH  075%=      5-min Rain = 0
KME1 041128Z 19005KT 22/18 A3001 RMK A01 T02240178  RH  075%=      5-min Rain = 0
KME1 041129Z 18005KT 22/18 A3001 RMK A01 T02230178  RH  076%=      5-min Rain = 0
KME1 041130Z 19005KT 22/18 A3001 RMK A01 T02230178  RH  076%=      5-min Rain = 0
KME1 041131Z 19005KT 22/18 A3001 RMK A01 T02230178  RH  076%=      5-min Rain = 0
KME1 041132Z 19004KT 22/18 A3002 RMK A01 T02230178  RH  076%=      5-min Rain = 0
KME1 041133Z 19004KT 22/18 A3002 RMK A01 T02230178  RH  076%=      5-min Rain = 0
KME1 041134Z 19004KT 22/18 A3002 RMK A01 T02230178  RH  076%=      5-min Rain = 0
KME1 041135Z 19005KT 22/18 A3002 RMK A01 T02220178  RH  076%=      5-min Rain = 0
KME1 041136Z 19004KT 22/18 A3002 RMK A01 T02220178  RH  076%=      5-min Rain = 0
KME1 041137Z 19004KT 22/18 A3002 RMK A01 T02220178  RH  076%=      5-min Rain = 0
KME1 041138Z 20004KT 22/18 A3002 RMK A01 T02220178  RH  076%=      5-min Rain = 0
KME1 041139Z 19005KT 22/18 A3002 RMK A01 T02210178  RH  076%=      5-min Rain = 0
KME1 041140Z 19005KT 22/18 A3002 RMK A01 T02210178  RH  076%=      5-min Rain = 0
KME1 041141Z 19004KT 22/18 A3002 RMK A01 T02210178  RH  077%=      5-min Rain = 0
KME1 041142Z 19005KT 22/18 A3002 RMK A01 T02210178  RH  077%=      5-min Rain = 0
KME1 041143Z 20005KT 22/18 A3002 RMK A01 T02210178  RH  077%=      5-min Rain = 0
KME1 041144Z 20005KT 22/18 A3002 RMK A01 T02210178  RH  077%=      5-min Rain = 0
KME1 041145Z 20005KT 22/18 A3002 RMK A01 T02200178  RH  077%=      5-min Rain = 0
KME1 041146Z 20005KT 22/18 A3002 RMK A01 T02200178  RH  077%=      5-min Rain = 0
KME1 041147Z 20005KT 22/18 A3002 RMK A01 T02200178  RH  077%=      5-min Rain = 0
KME1 041148Z 20005KT 22/18 A3002 RMK A01 T02200178  RH  077%=      5-min Rain = 0
KME1 041149Z 19005KT 22/18 A3002 RMK A01 T02200178  RH  077%=      5-min Rain = 0
KME1 041150Z 20006KT 22/18 A3002 RMK A01 T02200178  RH  077%=      5-min Rain = 0
KME1 041151Z 19005KT 22/18 A3002 RMK A01 T02190178  RH  077%=      5-min Rain = 0
KME1 041152Z 20005KT 22/18 A3002 RMK A01 T02190178  RH  078%=      5-min Rain = 0
KME1 041153Z 20005KT 22/18 A3002 RMK A01 T02190178  RH  078%=      5-min Rain = 0
KME1 041154Z 20005KT 22/18 A3002 RMK A01 T02190178  RH  078%=      5-min Rain = 0
KME1 041155Z 20005KT 22/18 A3002 RMK A01 T02190179  RH  078%=      5-min Rain = 0
KME1 041156Z 20005KT 22/18 A3002 RMK A01 T02190179  RH  078%=      5-min Rain = 0
KME1 041157Z 20005KT 22/18 A3002 RMK A01 T02180179  RH  078%=      5-min Rain = 0
KME1 041158Z 19005KT 22/18 A3002 RMK A01 T02180179  RH  078%=      5-min Rain = 0
KME1 041159Z 19005KT 22/18 A3002 RMK A01 T02180179  RH  079%=      5-min Rain = 0
KME1 041200Z 19005KT 22/18 A3002 RMK A01 T02180179  RH  079%=      5-min Rain = 0
KME1 041201Z 19005KT 22/18 A3002 RMK A01 T02180179  RH  079%=      5-min Rain = 0
KME1 041202Z 19006KT 22/18 A3002 RMK A01 T02180179  RH  079%=      5-min Rain = 0
KME1 041203Z 20005KT 22/18 A3002 RMK A01 T02180179  RH  078%=      5-min Rain = 0
KME1 041204Z 20006KT 22/18 A3002 RMK A01 T02180178  RH  078%=      5-min Rain = 0
KME1 041205Z 20006KT 22/18 A3002 RMK A01 T02190179  RH  078%=      5-min Rain = 0
KME1 041206Z 20005KT 22/18 A3002 RMK A01 T02190179  RH  078%=      5-min Rain = 0
KME1 041207Z 20005KT 22/18 A3002 RMK A01 T02200179  RH  078%=      5-min Rain = 0
KME1 041208Z 21005KT 22/18 A3002 RMK A01 T02190180  RH  078%=      5-min Rain = 0
KME1 041209Z 20005KT 22/18 A3002 RMK A01 T02190180  RH  078%=      5-min Rain = 0
KME1 041210Z 21005KT 22/18 A3002 RMK A01 T02190180  RH  079%=      5-min Rain = 0
KME1 041211Z 20005KT 22/18 A3002 RMK A01 T02180180  RH  079%=      5-min Rain = 0
KME1 041212Z 20005KT 22/18 A3002 RMK A01 T02180181  RH  079%=      5-min Rain = 0
KME1 041213Z 20004KT 22/18 A3002 RMK A01 T02180180  RH  079%=      5-min Rain = 0
KME1 041214Z 20004KT 22/18 A3002 RMK A01 T02180180  RH  079%=      5-min Rain = 0
KME1 041215Z 20004KT 22/18 A3002 RMK A01 T02190180  RH  079%=      5-min Rain = 0
KME1 041216Z 20004KT 22/18 A3002 RMK A01 T02200181  RH  078%=      5-min Rain = 0
KME1 041217Z 19004KT 22/18 A3002 RMK A01 T02200181  RH  078%=      5-min Rain = 0
KME1 041218Z 19004KT 22/18 A3002 RMK A01 T02210181  RH  078%=      5-min Rain = 0
KME1 041219Z 19004KT 22/18 A3002 RMK A01 T02210181  RH  078%=      5-min Rain = 0
KME1 041220Z 19003KT 22/18 A3002 RMK A01 T02210181  RH  078%=      5-min Rain = 0
KME1 041221Z 19004KT 22/18 A3002 RMK A01 T02220181  RH  078%=      5-min Rain = 0
KME1 041222Z 19004KT 22/18 A3002 RMK A01 T02220181  RH  077%=      5-min Rain = 0
KME1 041223Z 18004KT 22/18 A3002 RMK A01 T02230182  RH  077%=      5-min Rain = 0
KME1 041224Z 19004KT 22/18 A3002 RMK A01 T02230182  RH  078%=      5-min Rain = 0
KME1 041225Z 19004KT 22/18 A3002 RMK A01 T02240182  RH  077%=      5-min Rain = 0
KME1 041226Z 19003KT 22/18 A3002 RMK A01 T02240182  RH  077%=      5-min Rain = 0
KME1 041227Z 19004KT 23/18 A3002 RMK A01 T02250181  RH  076%=      5-min Rain = 0
KME1 041228Z 19003KT 23/18 A3002 RMK A01 T02260182  RH  076%=      5-min Rain = 0
KME1 041229Z 19003KT 23/18 A3002 RMK A01 T02260182  RH  076%=      5-min Rain = 0
KME1 041230Z 20003KT 23/18 A3002 RMK A01 T02270182  RH  076%=      5-min Rain = 0
KME1 041231Z 19003KT 23/18 A3002 RMK A01 T02280183  RH  076%=      5-min Rain = 0
KME1 041232Z 19003KT 23/18 A3002 RMK A01 T02280184  RH  076%=      5-min Rain = 0
KME1 041233Z 19003KT 23/18 A3002 RMK A01 T02280184  RH  076%=      5-min Rain = 0
KME1 041234Z 19003KT 23/18 A3002 RMK A01 T02290184  RH  076%=      5-min Rain = 0
KME1 041235Z 19004KT 23/18 A3002 RMK A01 T02290183  RH  075%=      5-min Rain = 0
KME1 041236Z 19004KT 23/18 A3002 RMK A01 T02300183  RH  075%=      5-min Rain = 0
KME1 041237Z 19004KT 23/18 A3002 RMK A01 T02310184  RH  075%=      5-min Rain = 0
KME1 041238Z 19003KT 23/18 A3003 RMK A01 T02310184  RH  075%=      5-min Rain = 0
KME1 041239Z 18003KT 23/18 A3003 RMK A01 T02320184  RH  074%=      5-min Rain = 0
KME1 041240Z 18003KT 23/18 A3003 RMK A01 T02320184  RH  074%=      5-min Rain = 0
KME1 041241Z 19003KT 23/18 A3003 RMK A01 T02330184  RH  074%=      5-min Rain = 0
KME1 041242Z 18002KT 23/19 A3003 RMK A01 T02330185  RH  074%=      5-min Rain = 0
KME1 041243Z 18002KT 23/19 A3003 RMK A01 T02340185  RH  074%=      5-min Rain = 0
KME1 041244Z 18002KT 23/19 A3003 RMK A01 T02340185  RH  074%=      5-min Rain = 0
KME1 041245Z 17002KT 24/19 A3003 RMK A01 T02350185  RH  073%=      5-min Rain = 0
KME1 041246Z 18002KT 24/19 A3003 RMK A01 T02360186  RH  073%=      5-min Rain = 0
KME1 041247Z 17003KT 24/19 A3003 RMK A01 T02370185  RH  073%=      5-min Rain = 0
KME1 041248Z 17002KT 24/18 A3003 RMK A01 T02370184  RH  072%=      5-min Rain = 0
KME1 041249Z 16001KT 24/19 A3003 RMK A01 T02380186  RH  073%=      5-min Rain = 0
KME1 041250Z 16002KT 24/19 A3003 RMK A01 T02390186  RH  072%=      5-min Rain = 0
KME1 041251Z 16002KT 24/19 A3003 RMK A01 T02400186  RH  072%=      5-min Rain = 0
KME1 041252Z 15002KT 24/19 A3003 RMK A01 T02410188  RH  072%=      5-min Rain = 0
KME1 041253Z 15003KT 24/19 A3003 RMK A01 T02410186  RH  071%=      5-min Rain = 0
KME1 041254Z 13003KT 24/19 A3003 RMK A01 T02420187  RH  072%=      5-min Rain = 0
KME1 041255Z 13003KT 24/19 A3003 RMK A01 T02420186  RH  071%=      5-min Rain = 0
KME1 041256Z 13003KT 24/19 A3003 RMK A01 T02420187  RH  071%=      5-min Rain = 0
KME1 041257Z 15004KT 24/19 A3003 RMK A01 T02420187  RH  071%=      5-min Rain = 0
KME1 041258Z 14004KT 24/19 A3003 RMK A01 T02410186  RH  071%=      5-min Rain = 0
KME1 041259Z 13003KT 24/19 A3003 RMK A01 T02420187  RH  072%=      5-min Rain = 0
KME1 041300Z 12003KT 24/19 A3003 RMK A01 T02410188  RH  072%=      5-min Rain = 0
KME1 041301Z 13004KT 24/19 A3003 RMK A01 T02410188  RH  072%=      5-min Rain = 0
KME1 041302Z 11003KT 24/19 A3003 RMK A01 T02420187  RH  072%=      5-min Rain = 0
KME1 041303Z 12002KT 24/19 A3003 RMK A01 T02420189  RH  072%=      5-min Rain = 0
KME1 041304Z 13003KT 24/19 A3004 RMK A01 T02420187  RH  071%=      5-min Rain = 0
KME1 041305Z 14004KT 24/19 A3004 RMK A01 T02420185  RH  070%=      5-min Rain = 0
KME1 041306Z 12002KT 24/19 A3004 RMK A01 T02420187  RH  071%=      5-min Rain = 0
KME1 041307Z 11002KT 24/19 A3004 RMK A01 T02430187  RH  071%=      5-min Rain = 0
KME1 041308Z 14002KT 24/19 A3004 RMK A01 T02440189  RH  071%=      5-min Rain = 0
KME1 041309Z 12002KT 25/19 A3004 RMK A01 T02460188  RH  070%=      5-min Rain = 0
KME1 041310Z 11001KT 25/19 A3004 RMK A01 T02470189  RH  070%=      5-min Rain = 0
KME1 041311Z 13002KT 25/19 A3004 RMK A01 T02480190  RH  070%=      5-min Rain = 0
KME1 041312Z 14003KT 25/19 A3004 RMK A01 T02480187  RH  069%=      5-min Rain = 0
KME1 041313Z 13002KT 25/19 A3004 RMK A01 T02480187  RH  069%=      5-min Rain = 0
KME1 041314Z 14004KT 25/19 A3004 RMK A01 T02480189  RH  069%=      5-min Rain = 0
KME1 041315Z 14003KT 25/19 A3004 RMK A01 T02490187  RH  069%=      5-min Rain = 0
KME1 041316Z 13003KT 25/19 A3004 RMK A01 T02480187  RH  069%=      5-min Rain = 0
KME1 041317Z 14004KT 25/19 A3004 RMK A01 T02480189  RH  070%=      5-min Rain = 0
KME1 041318Z 15003KT 25/19 A3004 RMK A01 T02480187  RH  069%=      5-min Rain = 0
KME1 041319Z 14003KT 25/19 A3004 RMK A01 T02480187  RH  069%=      5-min Rain = 0
KME1 041320Z 16004KT 25/19 A3004 RMK A01 T02480189  RH  070%=      5-min Rain = 0
KME1 041321Z 17003KT 25/19 A3004 RMK A01 T02480187  RH  069%=      5-min Rain = 0
KME1 041322Z 17002KT 25/19 A3004 RMK A01 T02480188  RH  069%=      5-min Rain = 0
KME1 041323Z 14001KT 25/19 A3004 RMK A01 T02480188  RH  069%=      5-min Rain = 0
KME1 041324Z 15001KT 25/19 A3004 RMK A01 T02490188  RH  069%=      5-min Rain = 0
KME1 041325Z 16002KT 25/19 A3004 RMK A01 T02490188  RH  068%=      5-min Rain = 0
KME1 041326Z 15000KT 25/19 A3004 RMK A01 T02510188  RH  068%=      5-min Rain = 0
KME1 041327Z 15001KT 25/19 A3004 RMK A01 T02520190  RH  069%=      5-min Rain = 0
KME1 041328Z 16003KT 25/19 A3004 RMK A01 T02530190  RH  068%=      5-min Rain = 0
KME1 041329Z 17002KT 25/19 A3004 RMK A01 T02540189  RH  067%=      5-min Rain = 0
KME1 041330Z 17002KT 25/19 A3004 RMK A01 T02540189  RH  067%=      5-min Rain = 0
KME1 041331Z 21002KT 25/19 A3004 RMK A01 T02540189  RH  067%=      5-min Rain = 0
KME1 041332Z 19003KT 25/19 A3004 RMK A01 T02530189  RH  067%=      5-min Rain = 0
KME1 041333Z 19002KT 25/19 A3004 RMK A01 T02530189  RH  068%=      5-min Rain = 0
KME1 041334Z 18003KT 25/19 A3004 RMK A01 T02530189  RH  068%=      5-min Rain = 0
KME1 041335Z 17002KT 25/19 A3004 RMK A01 T02530191  RH  069%=      5-min Rain = 0
KME1 041336Z 17002KT 25/19 A3004 RMK A01 T02540193  RH  069%=      5-min Rain = 0
KME1 041337Z 18004KT 26/19 A3004 RMK A01 T02550191  RH  068%=      5-min Rain = 0
KME1 041338Z 16003KT 26/19 A3004 RMK A01 T02560191  RH  067%=      5-min Rain = 0
KME1 041339Z 16004KT 26/19 A3004 RMK A01 T02560192  RH  068%=      5-min Rain = 0
KME1 041340Z 16005KT 26/19 A3004 RMK A01 T02570192  RH  067%=      5-min Rain = 0
KME1 041341Z 15004KT 26/19 A3004 RMK A01 T02570192  RH  067%=      5-min Rain = 0
KME1 041342Z 14004KT 26/19 A3004 RMK A01 T02570193  RH  068%=      5-min Rain = 0
KME1 041343Z 16005KT 26/19 A3004 RMK A01 T02580194  RH  068%=      5-min Rain = 0
KME1 041344Z 16004KT 26/19 A3004 RMK A01 T02580193  RH  067%=      5-min Rain = 0
KME1 041345Z 15005KT 26/20 A3004 RMK A01 T02590195  RH  068%=      5-min Rain = 0
KME1 041346Z 15005KT 26/19 A3004 RMK A01 T02600194  RH  067%=      5-min Rain = 0
KME1 041347Z 16006KT 26/19 A3004 RMK A01 T02600194  RH  067%=      5-min Rain = 0
KME1 041348Z 16005KT 26/19 A3004 RMK A01 T02600194  RH  067%=      5-min Rain = 0
KME1 041349Z 17004KT 26/19 A3004 RMK A01 T02600194  RH  067%=      5-min Rain = 0
KME1 041350Z 17005KT 26/20 A3004 RMK A01 T02610195  RH  067%=      5-min Rain = 0
KME1 041351Z 16003KT 26/19 A3004 RMK A01 T02610194  RH  067%=      5-min Rain = 0
KME1 041352Z 16006KT 26/20 A3004 RMK A01 T02610196  RH  067%=      5-min Rain = 0
KME1 041353Z 16005KT 26/20 A3004 RMK A01 T02620195  RH  067%=      5-min Rain = 0
KME1 041354Z 17004KT 26/20 A3004 RMK A01 T02620196  RH  067%=      5-min Rain = 0
KME1 041355Z 16005KT 26/20 A3004 RMK A01 T02630198  RH  067%=      5-min Rain = 0
KME1 041356Z 17007KT 26/20 A3004 RMK A01 T02640196  RH  066%=      5-min Rain = 0
KME1 041357Z 17006KT 26/20 A3004 RMK A01 T02640195  RH  066%=      5-min Rain = 0
KME1 041358Z 17004KT 26/20 A3004 RMK A01 T02640197  RH  067%=      5-min Rain = 0
KME1 041359Z 17006KT 27/20 A3004 RMK A01 T02650197  RH  066%=      5-min Rain = 0
KME1 041400Z 18005KT 27/20 A3004 RMK A01 T02650196  RH  066%=      5-min Rain = 0
KME1 041401Z 16006KT 27/20 A3004 RMK A01 T02650198  RH  066%=      5-min Rain = 0
KME1 041402Z 18005KT 27/20 A3004 RMK A01 T02660197  RH  066%=      5-min Rain = 0
KME1 041403Z 17005KT 27/20 A3004 RMK A01 T02660197  RH  066%=      5-min Rain = 0
KME1 041404Z 17005KT 27/20 A3004 RMK A01 T02670198  RH  066%=      5-min Rain = 0
KME1 041405Z 16005KT 27/20 A3004 RMK A01 T02670198  RH  066%=      5-min Rain = 0
KME1 041406Z 19004KT 27/20 A3004 RMK A01 T02680200  RH  066%=      5-min Rain = 0
KME1 041407Z 18004KT 27/20 A3004 RMK A01 T02700201  RH  066%=      5-min Rain = 0
KME1 041408Z 16007KT 27/20 A3004 RMK A01 T02720203  RH  066%=      5-min Rain = 0
KME1 041409Z 17007KT 27/20 A3004 RMK A01 T02740201  RH  064%=      5-min Rain = 0
KME1 041410Z 18007KT 28/20 A3004 RMK A01 T02750201  RH  064%=      5-min Rain = 0
KME1 041411Z 18009KT 28/20 A3004 RMK A01 T02750202  RH  064%=      5-min Rain = 0
KME1 041412Z 17009KT 28/20 A3004 RMK A01 T02760201  RH  064%=      5-min Rain = 0
KME1 041413Z 18007KT 28/20 A3004 RMK A01 T02750202  RH  064%=      5-min Rain = 0
KME1 041414Z 17007KT 28/20 A3004 RMK A01 T02750202  RH  065%=      5-min Rain = 0
KME1 041415Z 17006KT 28/20 A3004 RMK A01 T02770204  RH  065%=      5-min Rain = 0
KME1 041416Z 17007KT 28/20 A3004 RMK A01 T02780203  RH  063%=      5-min Rain = 0
KME1 041417Z 17007KT 28/20 A3004 RMK A01 T02780203  RH  063%=      5-min Rain = 0
KME1 041418Z 18010KT 28/20 A3004 RMK A01 T02790203  RH  063%=      5-min Rain = 0
KME1 041419Z 19009KT 28/20 A3003 RMK A01 T02790202  RH  063%=      5-min Rain = 0
KME1 041420Z 18007KT 28/20 A3003 RMK A01 T02780202  RH  063%=      5-min Rain = 0
KME1 041421Z 17006KT 28/20 A3003 RMK A01 T02780203  RH  064%=      5-min Rain = 0
KME1 041422Z 18008KT 28/20 A3003 RMK A01 T02790203  RH  063%=      5-min Rain = 0
KME1 041423Z 17010KT 28/20 A3003 RMK A01 T02800202  RH  063%=      5-min Rain = 0
KME1 041424Z 18009KT 28/20 A3003 RMK A01 T02800202  RH  063%=      5-min Rain = 0
KME1 041425Z 19008KT 28/20 A3003 RMK A01 T02800203  RH  063%=      5-min Rain = 0
KME1 041426Z 19009KT 28/20 A3003 RMK A01 T02800202  RH  062%=      5-min Rain = 0
KME1 041427Z 18010KT 28/20 A3003 RMK A01 T02810201  RH  062%=      5-min Rain = 0
KME1 041428Z 18007KT 28/20 A3003 RMK A01 T02810202  RH  062%=      5-min Rain = 0
KME1 041429Z 19009KT 28/20 A3003 RMK A01 T02810204  RH  063%=      5-min Rain = 0
KME1 041430Z 20011KT 28/20 A3003 RMK A01 T02830201  RH  061%=      5-min Rain = 0
KME1 041431Z 20009KT 28/20 A3003 RMK A01 T02830202  RH  061%=      5-min Rain = 0
KME1 041432Z 20010KT 28/20 A3003 RMK A01 T02830202  RH  061%=      5-min Rain = 0
KME1 041433Z 20009KT 28/20 A3003 RMK A01 T02840202  RH  061%=      5-min Rain = 0
KME1 041434Z 19009KT 28/20 A3003 RMK A01 T02840202  RH  061%=      5-min Rain = 0
KME1 041435Z 18009KT 28/20 A3004 RMK A01 T02840203  RH  062%=      5-min Rain = 0
KME1 041436Z 18008KT 28/20 A3004 RMK A01 T02830203  RH  062%=      5-min Rain = 0
KME1 041437Z 18009KT 28/20 A3004 RMK A01 T02830204  RH  062%=      5-min Rain = 0
KME1 041438Z 18010KT 29/20 A3004 RMK A01 T02850203  RH  061%=      5-min Rain = 0
KME1 041439Z 19010KT 28/20 A3003 RMK A01 T02840204  RH  062%=      5-min Rain = 0
KME1 041440Z 19010KT 28/20 A3003 RMK A01 T02840203  RH  062%=      5-min Rain = 0
KME1 041441Z 19010KT 28/20 A3003 RMK A01 T02830204  RH  062%=      5-min Rain = 0
KME1 041442Z 19010KT 28/20 A3003 RMK A01 T02840202  RH  061%=      5-min Rain = 0
KME1 041443Z 21009KT 29/20 A3003 RMK A01 T02850202  RH  061%=      5-min Rain = 0
KME1 041444Z 21009KT 29/20 A3003 RMK A01 T02870204  RH  061%=      5-min Rain = 0
KME1 041445Z 20010KT 29/20 A3003 RMK A01 T02880204  RH  060%=      5-min Rain = 0
KME1 041446Z 18008KT 29/21 A3003 RMK A01 T02890205  RH  060%=      5-min Rain = 0
KME1 041447Z 18007KT 29/20 A3003 RMK A01 T02900204  RH  060%=      5-min Rain = 0
KME1 041448Z 19008KT 29/21 A3003 RMK A01 T02900207  RH  061%=      5-min Rain = 0
KME1 041449Z 20010KT 29/20 A3003 RMK A01 T02900204  RH  060%=      5-min Rain = 0
KME1 041450Z 19011KT 29/20 A3003 RMK A01 T02900203  RH  059%=      5-min Rain = 0
KME1 041451Z 19011KT 29/20 A3003 RMK A01 T02880203  RH  060%=      5-min Rain = 0
KME1 041452Z 20008KT 29/20 A3003 RMK A01 T02880203  RH  060%=      5-min Rain = 0
KME1 041453Z 20008KT 29/20 A3003 RMK A01 T02890203  RH  060%=      5-min Rain = 0
KME1 041454Z 19007KT 29/21 A3003 RMK A01 T02900205  RH  060%=      5-min Rain = 0
KME1 041455Z 18009KT 29/21 A3003 RMK A01 T02910206  RH  060%=      5-min Rain = 0
KME1 041456Z 18009KT 29/20 A3003 RMK A01 T02920203  RH  059%=      5-min Rain = 0
KME1 041457Z 18009KT 29/21 A3003 RMK A01 T02920205  RH  060%=      5-min Rain = 0
KME1 041458Z 19011KT 29/20 A3003 RMK A01 T02910204  RH  059%=      5-min Rain = 0
KME1 041459Z 18007KT 29/20 A3003 RMK A01 T02910204  RH  059%=      5-min Rain = 0
KME1 041500Z 18010KT 29/21 A3003 RMK A01 T02930205  RH  059%=      5-min Rain = 0
KME1 041501Z 18012KT 29/20 A3003 RMK A01 T02940203  RH  058%=      5-min Rain = 0
KME1 041502Z 19009KT 29/20 A3003 RMK A01 T02930204  RH  059%=      5-min Rain = 0
KME1 041503Z 19010KT 29/20 A3003 RMK A01 T02920203  RH  059%=      5-min Rain = 0
KME1 041504Z 19010KT 29/20 A3003 RMK A01 T02920203  RH  059%=      5-min Rain = 0
KME1 041505Z 18009KT 29/20 A3003 RMK A01 T02920203  RH  059%=      5-min Rain = 0
KME1 041506Z 18011KT 29/20 A3003 RMK A01 T02930203  RH  058%=      5-min Rain = 0
KME1 041507Z 18010KT 29/20 A3003 RMK A01 T02930203  RH  058%=      5-min Rain = 0
KME1 041508Z 18011KT 30/20 A3003 RMK A01 T02950202  RH  057%=      5-min Rain = 0
KME1 041509Z 19011KT 30/20 A3003 RMK A01 T02950202  RH  057%=      5-min Rain = 0
KME1 041510Z 19008KT 30/20 A3003 RMK A01 T02950203  RH  058%=      5-min Rain = 0
KME1 041511Z 18010KT 30/21 A3003 RMK A01 T02960205  RH  058%=      5-min Rain = 0
KME1 041512Z 19011KT 30/20 A3003 RMK A01 T02970202  RH  057%=      5-min Rain = 0
KME1 041513Z 18010KT 30/20 A3003 RMK A01 T02970204  RH  057%=      5-min Rain = 0
KME1 041514Z 17010KT 30/20 A3003 RMK A01 T02970204  RH  057%=      5-min Rain = 0
KME1 041515Z 19010KT 30/20 A3003 RMK A01 T02990203  RH  057%=      5-min Rain = 0
KME1 041516Z 18010KT 30/21 A3003 RMK A01 T02990205  RH  057%=      5-min Rain = 0
KME1 041517Z 18011KT 30/20 A3003 RMK A01 T02990204  RH  057%=      5-min Rain = 0
KME1 041518Z 18010KT 30/20 A3003 RMK A01 T03000204  RH  057%=      5-min Rain = 0
KME1 041519Z 17009KT 30/20 A3003 RMK A01 T03000203  RH  056%=      5-min Rain = 0
KME1 041520Z 18010KT 30/20 A3003 RMK A01 T03000203  RH  056%=      5-min Rain = 0
KME1 041521Z 18009KT 30/20 A3003 RMK A01 T03010204  RH  056%=      5-min Rain = 0
KME1 041522Z 18011KT 30/20 A3003 RMK A01 T03030201  RH  054%=      5-min Rain = 0
KME1 041523Z 19009KT 30/20 A3003 RMK A01 T03030202  RH  055%=      5-min Rain = 0
KME1 041524Z 19008KT 30/20 A3003 RMK A01 T03040203  RH  055%=      5-min Rain = 0
KME1 041525Z 19009KT 31/20 A3003 RMK A01 T03060204  RH  055%=      5-min Rain = 0
KME1 041526Z 18009KT 31/20 A3003 RMK A01 T03070203  RH  054%=      5-min Rain = 0
KME1 041527Z 18009KT 31/20 A3004 RMK A01 T03060204  RH  055%=      5-min Rain = 0
KME1 041528Z 17008KT 31/20 A3004 RMK A01 T03070204  RH  054%=      5-min Rain = 0
KME1 041529Z 18012KT 31/20 A3003 RMK A01 T03080201  RH  053%=      5-min Rain = 0
KME1 041530Z 18011KT 31/20 A3003 RMK A01 T03070198  RH  052%=      5-min Rain = 0
KME1 041531Z 18010KT 31/20 A3003 RMK A01 T03050199  RH  053%=      5-min Rain = 0
KME1 041532Z 18011KT 31/20 A3003 RMK A01 T03050199  RH  053%=      5-min Rain = 0
KME1 041533Z 18010KT 30/20 A3003 RMK A01 T03040200  RH  054%=      5-min Rain = 0
KME1 041534Z 18009KT 30/20 A3003 RMK A01 T03040200  RH  054%=      5-min Rain = 0
KME1 041535Z 19008KT 31/20 A3003 RMK A01 T03060201  RH  054%=      5-min Rain = 0
KME1 041536Z 19010KT 31/20 A3003 RMK A01 T03070201  RH  053%=      5-min Rain = 0
KME1 041537Z 19008KT 31/20 A3003 RMK A01 T03080202  RH  053%=      5-min Rain = 0
KME1 041538Z 20010KT 31/20 A3003 RMK A01 T03110202  RH  052%=      5-min Rain = 0
KME1 041539Z 21009KT 31/20 A3003 RMK A01 T03120199  RH  051%=      5-min Rain = 0
KME1 041540Z 21008KT 31/20 A3003 RMK A01 T03120199  RH  051%=      5-min Rain = 0
KME1 041541Z 20008KT 31/20 A3003 RMK A01 T03130199  RH  051%=      5-min Rain = 0
KME1 041542Z 18009KT 31/20 A3003 RMK A01 T03140202  RH  051%=      5-min Rain = 0
KME1 041543Z 18009KT 31/20 A3003 RMK A01 T03140203  RH  052%=      5-min Rain = 0
KME1 041544Z 19007KT 31/20 A3003 RMK A01 T03140203  RH  051%=      5-min Rain = 0
KME1 041545Z 20006KT 31/20 A3003 RMK A01 T03140204  RH  052%=      5-min Rain = 0
KME1 041546Z 19011KT 32/20 A3003 RMK A01 T03160198  RH  050%=      5-min Rain = 0
KME1 041547Z 20009KT 32/19 A3003 RMK A01 T03150194  RH  049%=      5-min Rain = 0
KME1 041548Z 19007KT 31/20 A3003 RMK A01 T03140198  RH  050%=      5-min Rain = 0
KME1 041549Z 21009KT 32/20 A3003 RMK A01 T03170199  RH  050%=      5-min Rain = 0
KME1 041550Z 21009KT 32/20 A3003 RMK A01 T03170200  RH  050%=      5-min Rain = 0
KME1 041551Z 19007KT 32/20 A3003 RMK A01 T03160200  RH  050%=      5-min Rain = 0
KME1 041552Z 19010KT 32/20 A3003 RMK A01 T03170198  RH  049%=      5-min Rain = 0
KME1 041553Z 19009KT 32/20 A3003 RMK A01 T03170195  RH  048%=      5-min Rain = 0
KME1 041554Z 19010KT 32/20 A3003 RMK A01 T03160195  RH  049%=      5-min Rain = 0
KME1 041555Z 21010KT 32/19 A3003 RMK A01 T03160193  RH  048%=      5-min Rain = 0
KME1 041556Z 20008KT 32/19 A3003 RMK A01 T03150190  RH  048%=      5-min Rain = 0
KME1 041557Z 20008KT 31/19 A3003 RMK A01 T03140194  RH  049%=      5-min Rain = 0
KME1 041558Z 21009KT 31/20 A3003 RMK A01 T03140196  RH  049%=      5-min Rain = 0
KME1 041559Z 19004KT 32/20 A3003 RMK A01 T03150196  RH  049%=      5-min Rain = 0
KME1 041600Z 20007KT 32/20 A3003 RMK A01 T03150200  RH  050%=      5-min Rain = 0
KME1 041601Z 21008KT 32/20 A3003 RMK A01 T03200203  RH  050%=      5-min Rain = 0
KME1 041602Z 20008KT 32/20 A3003 RMK A01 T03220200  RH  048%=      5-min Rain = 0
KME1 041603Z 21010KT 32/20 A3003 RMK A01 T03220202  RH  049%=      5-min Rain = 0
KME1 041604Z 20010KT 32/20 A3003 RMK A01 T03220199  RH  048%=      5-min Rain = 0
KME1 041605Z 19009KT 32/20 A3003 RMK A01 T03210199  RH  048%=      5-min Rain = 0
KME1 041606Z 18009KT 32/19 A3003 RMK A01 T03200193  RH  047%=      5-min Rain = 0
KME1 041607Z 17011KT 32/20 A3003 RMK A01 T03190196  RH  048%=      5-min Rain = 0
KME1 041608Z 17008KT 32/20 A3003 RMK A01 T03180197  RH  049%=      5-min Rain = 0
KME1 041609Z 16006KT 32/20 A3003 RMK A01 T03180200  RH  049%=      5-min Rain = 0
KME1 041610Z 16006KT 32/20 A3003 RMK A01 T03200199  RH  049%=      5-min Rain = 0
KME1 041611Z 16006KT 32/20 A3003 RMK A01 T03200199  RH  049%=      5-min Rain = 0
KME1 041612Z 18007KT 32/20 A3003 RMK A01 T03210200  RH  049%=      5-min Rain = 0
KME1 041613Z 16009KT 32/20 A3003 RMK A01 T03220199  RH  048%=      5-min Rain = 0
KME1 041614Z 17009KT 32/20 A3003 RMK A01 T03220200  RH  048%=      5-min Rain = 0
KME1 041615Z 18007KT 32/20 A3003 RMK A01 T03230198  RH  048%=      5-min Rain = 0
KME1 041616Z 18006KT 32/20 A3003 RMK A01 T03210197  RH  048%=      5-min Rain = 0
KME1 041617Z 17007KT 32/20 A3003 RMK A01 T03210198  RH  048%=      5-min Rain = 0
KME1 041618Z 19006KT 32/20 A3003 RMK A01 T03240199  RH  048%=      5-min Rain = 0
KME1 041619Z 17010KT 33/20 A3003 RMK A01 T03260197  RH  047%=      5-min Rain = 0
KME1 041620Z 18009KT 33/20 A3003 RMK A01 T03260195  RH  046%=      5-min Rain = 0
KME1 041621Z 18007KT 33/19 A3003 RMK A01 T03260194  RH  046%=      5-min Rain = 0
KME1 041622Z 18010KT 33/19 A3003 RMK A01 T03260193  RH  045%=      5-min Rain = 0
KME1 041623Z 17008KT 33/19 A3003 RMK A01 T03260191  RH  045%=      5-min Rain = 0
KME1 041624Z 17008KT 33/20 A3003 RMK A01 T03250195  RH  046%=      5-min Rain = 0
KME1 041625Z 16007KT 33/19 A3003 RMK A01 T03260190  RH  044%=      5-min Rain = 0
KME1 041626Z 18007KT 33/19 A3003 RMK A01 T03280192  RH  045%=      5-min Rain = 0
KME1 041627Z 18008KT 33/20 A3003 RMK A01 T03300196  RH  045%=      5-min Rain = 0
KME1 041628Z 19009KT 33/19 A3003 RMK A01 T03310190  RH  044%=      5-min Rain = 0
KME1 041629Z 17008KT 33/19 A3003 RMK A01 T03270194  RH  045%=      5-min Rain = 0
KME1 041630Z 17007KT 33/19 A3003 RMK A01 T03260192  RH  045%=      5-min Rain = 0
KME1 041631Z 16008KT 33/19 A3003 RMK A01 T03250192  RH  046%=      5-min Rain = 0
KME1 041632Z 17006KT 32/19 A3003 RMK A01 T03240192  RH  046%=      5-min Rain = 0
KME1 041633Z 18007KT 33/19 A3003 RMK A01 T03250190  RH  045%=      5-min Rain = 0
KME1 041634Z 17007KT 33/18 A3003 RMK A01 T03250182  RH  043%=      5-min Rain = 0
KME1 041635Z 15005KT 33/18 A3003 RMK A01 T03250182  RH  043%=      5-min Rain = 0
KME1 041636Z 16006KT 33/19 A3003 RMK A01 T03260189  RH  044%=      5-min Rain = 0
KME1 041637Z 18005KT 33/19 A3003 RMK A01 T03300193  RH  044%=      5-min Rain = 0
KME1 041638Z 17006KT 33/20 A3003 RMK A01 T03320195  RH  044%=      5-min Rain = 0
KME1 041639Z 16007KT 33/19 A3003 RMK A01 T03330192  RH  043%=      5-min Rain = 0
KME1 041640Z 16008KT 33/19 A3003 RMK A01 T03330192  RH  044%=      5-min Rain = 0
KME1 041641Z 19007KT 33/19 A3003 RMK A01 T03320191  RH  043%=      5-min Rain = 0
KME1 041642Z 19008KT 33/19 A3003 RMK A01 T03330190  RH  043%=      5-min Rain = 0
KME1 041643Z 21005KT 33/18 A3003 RMK A01 T03330184  RH  041%=      5-min Rain = 0
KME1 041644Z 16006KT 33/19 A3003 RMK A01 T03300186  RH  042%=      5-min Rain = 0
KME1 041645Z 14007KT 33/18 A3003 RMK A01 T03310181  RH  041%=      5-min Rain = 0
KME1 041646Z 16006KT 33/18 A3003 RMK A01 T03300183  RH  042%=      5-min Rain = 0
KME1 041647Z 18007KT 33/18 A3003 RMK A01 T03310178  RH  040%=      5-min Rain = 0
KME1 041648Z 18005KT 33/18 A3003 RMK A01 T03310178  RH  040%=      5-min Rain = 0
KME1 041649Z 17003KT 33/18 A3003 RMK A01 T03310180  RH  041%=      5-min Rain = 0
KME1 041650Z 18005KT 33/18 A3003 RMK A01 T03310182  RH  041%=      5-min Rain = 0
KME1 041651Z 18009KT 33/18 A3003 RMK A01 T03330184  RH  042%=      5-min Rain = 0
KME1 041652Z 18007KT 33/18 A3003 RMK A01 T03320181  RH  041%=      5-min Rain = 0
KME1 041653Z 18006KT 33/19 A3004 RMK A01 T03310185  RH  042%=      5-min Rain = 0
KME1 041654Z 17006KT 34/18 A3004 RMK A01 T03350183  RH  041%=      5-min Rain = 0
KME1 041655Z 19006KT 34/18 A3004 RMK A01 T03360182  RH  040%=      5-min Rain = 0
KME1 041656Z 18007KT 34/18 A3004 RMK A01 T03370178  RH  039%=      5-min Rain = 0
KME1 041657Z 19005KT 34/18 A3004 RMK A01 T03360176  RH  039%=      5-min Rain = 0
KME1 041658Z 21004KT 34/17 A3004 RMK A01 T03350173  RH  038%=      5-min Rain = 0
KME1 041659Z 21005KT 33/18 A3004 RMK A01 T03330176  RH  039%=      5-min Rain = 0
KME1 041700Z 18006KT 33/17 A3004 RMK A01 T03340169  RH  037%=      5-min Rain = 0
KME1 041701Z 17004KT 33/17 A3004 RMK A01 T03340167  RH  037%=      5-min Rain = 0
KME1 041702Z 20002KT 33/17 A3004 RMK A01 T03330169  RH  038%=      5-min Rain = 0
KME1 041703Z 24005KT 33/17 A3004 RMK A01 T03340170  RH  038%=      5-min Rain = 0
KME1 041704Z 19004KT 34/17 A3004 RMK A01 T03350174  RH  038%=      5-min Rain = 0
KME1 041705Z 18006KT 34/17 A3004 RMK A01 T03370173  RH  038%=      5-min Rain = 0
KME1 041706Z 20006KT 34/18 A3004 RMK A01 T03370175  RH  038%=      5-min Rain = 0
KME1 041707Z 19005KT 34/18 A3004 RMK A01 T03370175  RH  038%=      5-min Rain = 0
KME1 041708Z 21005KT 34/18 A3004 RMK A01 T03350176  RH  039%=      5-min Rain = 0
KME1 041709Z 23003KT 34/18 A3004 RMK A01 T03350175  RH  039%=      5-min Rain = 0
KME1 041710Z 21004KT 34/18 A3004 RMK A01 T03370175  RH  038%=      5-min Rain = 0
KME1 041711Z 20004KT 34/17 A3004 RMK A01 T03370171  RH  037%=      5-min Rain = 0
KME1 041712Z 23003KT 34/17 A3004 RMK A01 T03360172  RH  038%=      5-min Rain = 0
KME1 041713Z 24003KT 34/17 A3004 RMK A01 T03380170  RH  037%=      5-min Rain = 0
KME1 041714Z 28002KT 34/17 A3004 RMK A01 T03380169  RH  037%=      5-min Rain = 0
KME1 041715Z 28002KT 34/17 A3004 RMK A01 T03380166  RH  036%=      5-min Rain = 0
KME1 041716Z 32003KT 34/17 A3003 RMK A01 T03370165  RH  036%=      5-min Rain = 0
KME1 041717Z 26003KT 34/17 A3003 RMK A01 T03370170  RH  037%=      5-min Rain = 0
KME1 041718Z 30003KT 34/17 A3003 RMK A01 T03370170  RH  037%=      5-min Rain = 0
KME1 041719Z 19002KT 34/17 A3003 RMK A01 T03380172  RH  037%=      5-min Rain = 0
KME1 041720Z 18002KT 34/17 A3003 RMK A01 T03380170  RH  037%=      5-min Rain = 0
KME1 041721Z 20003KT 34/17 A3003 RMK A01 T03380172  RH  037%=      5-min Rain = 0
KME1 041722Z 21002KT 34/17 A3003 RMK A01 T03390173  RH  037%=      5-min Rain = 0
KME1 041723Z 13003KT 34/18 A3003 RMK A01 T03390178  RH  038%=      5-min Rain = 0
KME1 041724Z 14004KT 34/18 A3003 RMK A01 T03400179  RH  039%=      5-min Rain = 0
KME1 041725Z 13003KT 34/18 A3003 RMK A01 T03390178  RH  038%=      5-min Rain = 0
KME1 041726Z 18004KT 34/18 A3003 RMK A01 T03390181  RH  039%=      5-min Rain = 0
KME1 041727Z 22005KT 34/18 A3003 RMK A01 T03410181  RH  039%=      5-min Rain = 0
KME1 041728Z 19008KT 34/18 A3003 RMK A01 T03430178  RH  038%=      5-min Rain = 0
KME1 041729Z 21006KT 34/18 A3003 RMK A01 T03420177  RH  038%=      5-min Rain = 0
KME1 041730Z 21006KT 34/18 A3003 RMK A01 T03410179  RH  038%=      5-min Rain = 0
KME1 041731Z 15005KT 34/18 A3003 RMK A01 T03410177  RH  038%=      5-min Rain = 0
KME1 041732Z 15007KT 34/18 A3003 RMK A01 T03410175  RH  037%=      5-min Rain = 0
KME1 041733Z 16008KT 34/18 A3003 RMK A01 T03410176  RH  038%=      5-min Rain = 0
KME1 041734Z 15008KT 34/17 A3003 RMK A01 T03400171  RH  037%=      5-min Rain = 0
KME1 041735Z 16008KT 34/17 A3003 RMK A01 T03420170  RH  036%=      5-min Rain = 0
KME1 041736Z 15007KT 34/17 A3003 RMK A01 T03430167  RH  035%=      5-min Rain = 0
KME1 041737Z 17005KT 34/17 A3003 RMK A01 T03420171  RH  036%=      5-min Rain = 0
KME1 041738Z 16006KT 34/17 A3003 RMK A01 T03420172  RH  036%=      5-min Rain = 0
KME1 041739Z 16005KT 34/17 A3003 RMK A01 T03430174  RH  037%=      5-min Rain = 0
KME1 041740Z 15003KT 34/17 A3003 RMK A01 T03430169  RH  035%=      5-min Rain = 0
KME1 041741Z 15004KT 34/17 A3003 RMK A01 T03440174  RH  037%=      5-min Rain = 0
KME1 041742Z 13006KT 34/17 A3003 RMK A01 T03440173  RH  036%=      5-min Rain = 0
KME1 041743Z 11003KT 34/17 A3003 RMK A01 T03430173  RH  037%=      5-min Rain = 0
KME1 041744Z 10003KT 34/17 A3003 RMK A01 T03430174  RH  037%=      5-min Rain = 0
KME1 041745Z 10001KT 34/17 A3003 RMK A01 T03430171  RH  036%=      5-min Rain = 0
KME1 041746Z 05001KT 34/17 A3003 RMK A01 T03430170  RH  036%=      5-min Rain = 0
KME1 041747Z 08002KT 34/17 A3003 RMK A01 T03430172  RH  036%=      5-min Rain = 0
KME1 041748Z 10001KT 34/17 A3003 RMK A01 T03440171  RH  036%=      5-min Rain = 0
KME1 041749Z 10001KT 34/17 A3003 RMK A01 T03440171  RH  036%=      5-min Rain = 0
KME1 041750Z 18004KT 34/17 A3003 RMK A01 T03430170  RH  036%=      5-min Rain = 0
KME1 041751Z 17005KT 35/17 A3003 RMK A01 T03450171  RH  036%=      5-min Rain = 0
KME1 041752Z 19005KT 35/17 A3003 RMK A01 T03460172  RH  035%=      5-min Rain = 0
KME1 041753Z 15005KT 35/17 A3003 RMK A01 T03490172  RH  035%=      5-min Rain = 0
KME1 041754Z 18007KT 35/18 A3003 RMK A01 T03510175  RH  035%=      5-min Rain = 0
KME1 041755Z 18007KT 35/17 A3003 RMK A01 T03520167  RH  033%=      5-min Rain = 0
KME1 041756Z 19008KT 35/17 A3003 RMK A01 T03500169  RH  034%=      5-min Rain = 0
KME1 041757Z 17008KT 35/17 A3003 RMK A01 T03500166  RH  034%=      5-min Rain = 0
KME1 041758Z 17005KT 35/17 A3003 RMK A01 T03510166  RH  033%=      5-min Rain = 0
KME1 041759Z 19005KT 35/16 A3003 RMK A01 T03520164  RH  033%=      5-min Rain = 0
KME1 041800Z 18004KT 35/17 A3003 RMK A01 T03510166  RH  033%=      5-min Rain = 0
KME1 041801Z 20003KT 35/17 A3003 RMK A01 T03510169  RH  034%=      5-min Rain = 0
KME1 041802Z 17002KT 35/17 A3003 RMK A01 T03520172  RH  035%=      5-min Rain = 0
KME1 041803Z 13004KT 35/17 A3003 RMK A01 T03520170  RH  034%=      5-min Rain = 0
KME1 041804Z 13004KT 35/17 A3003 RMK A01 T03520169  RH  034%=      5-min Rain = 0
KME1 041805Z 13002KT 35/17 A3003 RMK A01 T03510174  RH  035%=      5-min Rain = 0
KME1 041806Z 24003KT 35/17 A3003 RMK A01 T03510169  RH  034%=      5-min Rain = 0
KME1 041807Z 18002KT 35/17 A3003 RMK A01 T03510167  RH  034%=      5-min Rain = 0
KME1 041808Z 17003KT 35/17 A3003 RMK A01 T03500174  RH  035%=      5-min Rain = 0
KME1 041809Z 19003KT 35/17 A3003 RMK A01 T03520170  RH  034%=      5-min Rain = 0
KME1 041810Z 16005KT 35/17 A3003 RMK A01 T03530171  RH  034%=      5-min Rain = 0
KME1 041811Z 16003KT 35/17 A3003 RMK A01 T03510168  RH  034%=      5-min Rain = 0
KME1 041812Z 15003KT 35/17 A3002 RMK A01 T03490170  RH  035%=      5-min Rain = 0
KME1 041813Z 14002KT 35/17 A3002 RMK A01 T03500168  RH  034%=      5-min Rain = 0
KME1 041814Z 15007KT 35/17 A3002 RMK A01 T03530166  RH  033%=      5-min Rain = 0
KME1 041815Z 13009KT 36/16 A3002 RMK A01 T03560161  RH  031%=      5-min Rain = 0
KME1 041816Z 11006KT 36/15 A3003 RMK A01 T03570151  RH  029%=      5-min Rain = 0
KME1 041817Z 08002KT 35/14 A3003 RMK A01 T03520143  RH  029%=      5-min Rain = 0
KME1 041818Z 08004KT 35/15 A3002 RMK A01 T03500148  RH  030%=      5-min Rain = 0
KME1 041819Z 10006KT 35/16 A3003 RMK A01 T03500156  RH  032%=      5-min Rain = 0
KME1 041820Z 07004KT 35/16 A3003 RMK A01 T03510157  RH  031%=      5-min Rain = 0
KME1 041821Z 06001KT 35/15 A3002 RMK A01 T03520151  RH  030%=      5-min Rain = 0
KME1 041822Z 05002KT 35/15 A3002 RMK A01 T03510153  RH  031%=      5-min Rain = 0
KME1 041823Z 07004KT 35/16 A3002 RMK A01 T03520157  RH  031%=      5-min Rain = 0
KME1 041824Z 11006KT 35/16 A3002 RMK A01 T03530157  RH  031%=      5-min Rain = 0
KME1 041825Z 09002KT 35/15 A3002 RMK A01 T03500154  RH  031%=      5-min Rain = 0
KME1 041826Z 03001KT 35/16 A3002 RMK A01 T03480156  RH  032%=      5-min Rain = 0
KME1 041827Z 00002KT 35/16 A3002 RMK A01 T03480159  RH  032%=      5-min Rain = 0
KME1 041828Z 35002KT 35/16 A3002 RMK A01 T03500159  RH  032%=      5-min Rain = 0
KME1 041829Z 34001KT 35/16 A3002 RMK A01 T03520158  RH  032%=      5-min Rain = 0
KME1 041830Z 35003KT 35/16 A3002 RMK A01 T03520158  RH  032%=      5-min Rain = 0
KME1 041831Z 01004KT 35/16 A3002 RMK A01 T03540159  RH  031%=      5-min Rain = 0
KME1 041832Z 06003KT 35/16 A3002 RMK A01 T03530159  RH  032%=      5-min Rain = 0
KME1 041833Z 11006KT 35/16 A3002 RMK A01 T03520159  RH  032%=      5-min Rain = 0
KME1 041834Z 13008KT 35/16 A3002 RMK A01 T03530161  RH  032%=      5-min Rain = 0
KME1 041835Z 12008KT 36/16 A3002 RMK A01 T03560161  RH  032%=      5-min Rain = 0
KME1 041836Z 12009G14KT 36/16 A3002 RMK A01 T03590162  RH  031%=      5-min Rain = 0
KME1 041837Z 13008KT 36/16 A3002 RMK A01 T03590158  RH  030%=      5-min Rain = 0
KME1 041838Z 13006KT 36/16 A3002 RMK A01 T03580160  RH  031%=      5-min Rain = 0
KME1 041839Z 10007KT 36/16 A3002 RMK A01 T03570157  RH  031%=      5-min Rain = 0
KME1 041840Z 09005KT 36/16 A3002 RMK A01 T03550156  RH  031%=      5-min Rain = 0
KME1 041841Z 09005KT 36/15 A3002 RMK A01 T03550153  RH  030%=      5-min Rain = 0
KME1 041842Z 09007KT 36/16 A3002 RMK A01 T03550156  RH  031%=      5-min Rain = 0
KME1 041843Z 09007KT 35/16 A3001 RMK A01 T03530158  RH  031%=      5-min Rain = 0
KME1 041844Z 10009KT 35/16 A3001 RMK A01 T03530160  RH  032%=      5-min Rain = 0
KME1 041845Z 11008KT 35/16 A3001 RMK A01 T03530163  RH  032%=      5-min Rain = 0
KME1 041846Z 13008KT 35/16 A3001 RMK A01 T03540160  RH  032%=      5-min Rain = 0
KME1 041847Z 13006KT 35/16 A3001 RMK A01 T03530163  RH  032%=      5-min Rain = 0
KME1 041848Z 13006KT 35/16 A3001 RMK A01 T03530162  RH  032%=      5-min Rain = 0
KME1 041849Z 12004KT 35/16 A3001 RMK A01 T03520161  RH  032%=      5-min Rain = 0
KME1 041850Z 13003KT 35/16 A3001 RMK A01 T03500159  RH  032%=      5-min Rain = 0
KME1 041851Z 14004KT 35/16 A3001 RMK A01 T03500156  RH  032%=      5-min Rain = 0
KME1 041852Z 18004KT 35/16 A3001 RMK A01 T03500156  RH  032%=      5-min Rain = 0
KME1 041853Z 17006KT 35/15 A3001 RMK A01 T03520153  RH  031%=      5-min Rain = 0
KME1 041854Z 17004KT 35/15 A3001 RMK A01 T03530153  RH  030%=      5-min Rain = 0
KME1 041855Z 14004KT 35/16 A3001 RMK A01 T03540156  RH  031%=      5-min Rain = 0
KME1 041856Z 10007G13KT 36/16 A3001 RMK A01 T03550158  RH  031%=      5-min Rain = 0
KME1 041857Z 11010KT 36/15 A3001 RMK A01 T03570148  RH  029%=      5-min Rain = 0
KME1 041858Z 11006KT 36/15 A3001 RMK A01 T03550147  RH  029%=      5-min Rain = 0
KME1 041859Z 11004KT 35/15 A3001 RMK A01 T03540146  RH  029%=      5-min Rain = 0
KME1 041900Z 10003KT 35/14 A3001 RMK A01 T03520144  RH  029%=      5-min Rain = 0
KME1 041901Z 13008G13KT 35/15 A3001 RMK A01 T03540152  RH  030%=      5-min Rain = 0
KME1 041902Z 14009KT 36/14 A3001 RMK A01 T03580144  RH  028%=      5-min Rain = 0
KME1 041903Z 12006KT 36/15 A3001 RMK A01 T03580146  RH  028%=      5-min Rain = 0
KME1 041904Z 11006KT 36/15 A3001 RMK A01 T03570147  RH  029%=      5-min Rain = 0
KME1 041905Z 11009KT 36/14 A3001 RMK A01 T03580143  RH  028%=      5-min Rain = 0
KME1 041906Z 12009KT 36/15 A30 RMK A01 T03580148  RH  029%=      5-min Rain = 0
KME1 041907Z 12007KT 36/15 A30 RMK A01 T03590148  RH  028%=      5-min Rain = 0
KME1 041908Z 07003KT 36/14 A30 RMK A01 T03600140  RH  027%=      5-min Rain = 0
KME1 041909Z 10004KT 36/14 A30 RMK A01 T03590144  RH  028%=      5-min Rain = 0
KME1 041910Z 12008KT 36/14 A30 RMK A01 T03590143  RH  028%=      5-min Rain = 0
KME1 041911Z 12008KT 36/15 A30 RMK A01 T03610145  RH  028%=      5-min Rain = 0
KME1 041912Z 09006KT 36/14 A30 RMK A01 T03590135  RH  026%=      5-min Rain = 0
KME1 041913Z 08004KT 36/14 A30 RMK A01 T03570139  RH  027%=      5-min Rain = 0
KME1 041914Z 10005G10KT 36/14 A30 RMK A01 T03570138  RH  027%=      5-min Rain = 0
KME1 041915Z 14010KT 36/15 A30 RMK A01 T03570148  RH  029%=      5-min Rain = 0
KME1 041916Z 17005KT 36/15 A30 RMK A01 T03590145  RH  028%=      5-min Rain = 0
KME1 041917Z 18005KT 36/15 A30 RMK A01 T03580147  RH  028%=      5-min Rain = 0
KME1 041918Z 15005KT 36/15 A30 RMK A01 T03580152  RH  029%=      5-min Rain = 0
KME1 041919Z 11006KT 36/15 A30 RMK A01 T03600152  RH  029%=      5-min Rain = 0
KME1 041920Z 09007KT 36/15 A30 RMK A01 T03610154  RH  029%=      5-min Rain = 0
KME1 041921Z 08007KT 36/15 A30 RMK A01 T03620150  RH  028%=      5-min Rain = 0
KME1 041922Z 08004KT 36/15 A30 RMK A01 T03610150  RH  029%=      5-min Rain = 0
KME1 041923Z 10006KT 36/15 A30 RMK A01 T03580148  RH  029%=      5-min Rain = 0
KME1 041924Z 12007KT 36/15 A30 RMK A01 T03580154  RH  030%=      5-min Rain = 0
KME1 041925Z 13010KT 36/15 A30 RMK A01 T03630153  RH  029%=      5-min Rain = 0
KME1 041926Z 11007KT 36/15 A30 RMK A01 T03630152  RH  028%=      5-min Rain = 0
KME1 041927Z 13008KT 36/15 A30 RMK A01 T03620148  RH  028%=      5-min Rain = 0
KME1 041928Z 12007KT 36/15 A30 RMK A01 T03620145  RH  027%=      5-min Rain = 0
KME1 041929Z 10009KT 36/14 A30 RMK A01 T03600142  RH  027%=      5-min Rain = 0
KME1 041930Z 13007KT 36/15 A30 RMK A01 T03590145  RH  028%=      5-min Rain = 0
KME1 041931Z 13004KT 36/14 A2999 RMK A01 T03600139  RH  027%=      5-min Rain = 0
KME1 041932Z 11003KT 36/14 A2999 RMK A01 T03590140  RH  027%=      5-min Rain = 0
KME1 041933Z 14005KT 36/14 A2999 RMK A01 T03590140  RH  027%=      5-min Rain = 0
KME1 041934Z 14008KT 36/14 A2999 RMK A01 T03600137  RH  026%=      5-min Rain = 0
KME1 041935Z 13004KT 36/13 A2999 RMK A01 T03600130  RH  025%=      5-min Rain = 0
KME1 041936Z 14007KT 36/13 A2999 RMK A01 T03590134  RH  026%=      5-min Rain = 0
KME1 041937Z 14007KT 36/14 A2999 RMK A01 T03590144  RH  028%=      5-min Rain = 0
KME1 041938Z 12009KT 36/15 A30 RMK A01 T03640152  RH  028%=      5-min Rain = 0
KME1 041939Z 12007KT 36/15 A30 RMK A01 T03640147  RH  028%=      5-min Rain = 0
KME1 041940Z 12007KT 36/14 A30 RMK A01 T03610143  RH  027%=      5-min Rain = 0
KME1 041941Z 11009KT 36/15 A30 RMK A01 T03590145  RH  028%=      5-min Rain = 0
KME1 041942Z 15006G12KT 36/15 A2999 RMK A01 T03600147  RH  028%=      5-min Rain = 0
KME1 041943Z 12003KT 36/15 A2999 RMK A01 T03600148  RH  028%=      5-min Rain = 0
KME1 041944Z 10003KT 36/14 A2999 RMK A01 T03600140  RH  027%=      5-min Rain = 0
KME1 041945Z 12001KT 36/14 A2999 RMK A01 T03590139  RH  027%=      5-min Rain = 0
KME1 041946Z 08002KT 36/14 A2999 RMK A01 T03590141  RH  027%=      5-min Rain = 0
KME1 041947Z 07004KT 36/15 A2999 RMK A01 T03590146  RH  028%=      5-min Rain = 0
KME1 041948Z 07006KT 36/15 A2999 RMK A01 T03590152  RH  029%=      5-min Rain = 0
KME1 041949Z 08005KT 36/16 A2999 RMK A01 T03610158  RH  030%=      5-min Rain = 0
KME1 041950Z 08003KT 36/15 A2999 RMK A01 T03630150  RH  028%=      5-min Rain = 0
KME1 041951Z 11004KT 36/15 A2999 RMK A01 T03620154  RH  029%=      5-min Rain = 0
KME1 041952Z 14007KT 36/15 A2999 RMK A01 T03630152  RH  029%=      5-min Rain = 0
KME1 041953Z 15010KT 36/15 A2999 RMK A01 T03640153  RH  029%=      5-min Rain = 0
KME1 041954Z 15009KT 36/15 A2999 RMK A01 T03640151  RH  028%=      5-min Rain = 0
KME1 041955Z 14007KT 36/15 A2999 RMK A01 T03620151  RH  029%=      5-min Rain = 0
KME1 041956Z 16006KT 36/15 A2999 RMK A01 T03610152  RH  029%=      5-min Rain = 0
KME1 041957Z 17005KT 36/15 A2999 RMK A01 T03620147  RH  028%=      5-min Rain = 0
KME1 041958Z 17005KT 36/15 A2999 RMK A01 T03620150  RH  028%=      5-min Rain = 0
KME1 041959Z 16006KT 36/15 A2999 RMK A01 T03640148  RH  028%=      5-min Rain = 0
KME1 042000Z 17005KT 36/15 A2999 RMK A01 T03640151  RH  028%=      5-min Rain = 0
KME1 042001Z 15007KT 37/15 A2999 RMK A01 T03650152  RH  028%=      5-min Rain = 0
KME1 042002Z 17006KT 37/15 A2999 RMK A01 T03660147  RH  027%=      5-min Rain = 0
KME1 042003Z 18007KT 36/15 A2998 RMK A01 T03630148  RH  028%=      5-min Rain = 0
KME1 042004Z 16005KT 36/15 A2998 RMK A01 T03630145  RH  027%=      5-min Rain = 0
KME1 042005Z 12005KT 36/15 A2998 RMK A01 T03600146  RH  028%=      5-min Rain = 0
KME1 042006Z 10006KT 36/15 A2998 RMK A01 T03600150  RH  029%=      5-min Rain = 0
KME1 042007Z 10003KT 36/15 A2998 RMK A01 T03610151  RH  029%=      5-min Rain = 0
KME1 042008Z 14005KT 36/15 A2998 RMK A01 T03620152  RH  029%=      5-min Rain = 0
KME1 042009Z 15006KT 36/15 A2998 RMK A01 T03630147  RH  028%=      5-min Rain = 0
KME1 042010Z 16008KT 36/15 A2998 RMK A01 T03640146  RH  027%=      5-min Rain = 0
KME1 042011Z 18003KT 36/14 A2998 RMK A01 T03630142  RH  027%=      5-min Rain = 0
KME1 042012Z 16003KT 36/14 A2998 RMK A01 T03610140  RH  027%=      5-min Rain = 0
KME1 042013Z 14009KT 36/15 A2998 RMK A01 T03610147  RH  028%=      5-min Rain = 0
KME1 042014Z 15005KT 36/15 A2998 RMK A01 T03610146  RH  028%=      5-min Rain = 0
KME1 042015Z 15005KT 36/15 A2998 RMK A01 T03610145  RH  028%=      5-min Rain = 0
KME1 042016Z 13005KT 36/15 A2998 RMK A01 T03610150  RH  028%=      5-min Rain = 0
KME1 042017Z 13008KT 36/16 A2998 RMK A01 T03620155  RH  029%=      5-min Rain = 0
KME1 042018Z 12010KT 36/15 A2998 RMK A01 T03640153  RH  029%=      5-min Rain = 0
KME1 042019Z 15010KT 36/15 A2998 RMK A01 T03640153  RH  029%=      5-min Rain = 0
KME1 042020Z 14007KT 36/15 A2998 RMK A01 T03640153  RH  029%=      5-min Rain = 0
KME1 042021Z 12009KT 37/15 A2998 RMK A01 T03670152  RH  028%=      5-min Rain = 0
KME1 042022Z 12007KT 37/15 A2998 RMK A01 T03680153  RH  028%=      5-min Rain = 0
KME1 042023Z 12008KT 37/15 A2998 RMK A01 T03680145  RH  027%=      5-min Rain = 0
KME1 042024Z 13006KT 37/15 A2998 RMK A01 T03650147  RH  027%=      5-min Rain = 0
KME1 042025Z 11008KT 36/15 A2998 RMK A01 T03640145  RH  027%=      5-min Rain = 0
KME1 042026Z 09005KT 36/14 A2998 RMK A01 T03620141  RH  027%=      5-min Rain = 0
KME1 042027Z 10004KT 36/15 A2998 RMK A01 T03600146  RH  028%=      5-min Rain = 0
KME1 042028Z 11004KT 36/15 A2998 RMK A01 T03600146  RH  028%=      5-min Rain = 0
KME1 042029Z 10003KT 36/15 A2998 RMK A01 T03610147  RH  028%=      5-min Rain = 0
KME1 042030Z 13003KT 36/15 A2998 RMK A01 T03610147  RH  028%=      5-min Rain = 0
KME1 042031Z 17004KT 36/15 A2998 RMK A01 T03620149  RH  028%=      5-min Rain = 0
KME1 042032Z 18007KT 36/16 A2998 RMK A01 T03640156  RH  029%=      5-min Rain = 0
KME1 042033Z 17010KT 37/15 A2998 RMK A01 T03650153  RH  028%=      5-min Rain = 0
KME1 042034Z 17007KT 37/15 A2997 RMK A01 T03650154  RH  029%=      5-min Rain = 0
KME1 042035Z 17010G17KT 37/16 A2997 RMK A01 T03650157  RH  029%=      5-min Rain = 0
KME1 042036Z 12012KT 37/15 A2998 RMK A01 T03680154  RH  028%=      5-min Rain = 0
KME1 042037Z 14010KT 37/15 A2998 RMK A01 T03690151  RH  027%=      5-min Rain = 0
KME1 042038Z 15007KT 37/15 A2998 RMK A01 T03670148  RH  027%=      5-min Rain = 0
KME1 042039Z 16007KT 37/15 A2997 RMK A01 T03660150  RH  028%=      5-min Rain = 0
KME1 042040Z 12007KT 37/15 A2998 RMK A01 T03670150  RH  028%=      5-min Rain = 0
KME1 042041Z 13006KT 37/15 A2998 RMK A01 T03680151  RH  028%=      5-min Rain = 0
KME1 042042Z 14006KT 37/15 A2998 RMK A01 T03680153  RH  028%=      5-min Rain = 0
KME1 042043Z 16008KT 37/16 A2997 RMK A01 T03680155  RH  028%=      5-min Rain = 0
KME1 042044Z 17010KT 37/16 A2997 RMK A01 T03690156  RH  028%=      5-min Rain = 0
KME1 042045Z 18009KT 37/16 A2997 RMK A01 T03700155  RH  028%=      5-min Rain = 0
KME1 042046Z 18008KT 37/15 A2997 RMK A01 T03670153  RH  028%=      5-min Rain = 0
KME1 042047Z 19008KT 37/15 A2997 RMK A01 T03650151  RH  028%=      5-min Rain = 0
KME1 042048Z 19007KT 36/15 A2997 RMK A01 T03620151  RH  029%=      5-min Rain = 0
KME1 042049Z 16004KT 36/16 A2997 RMK A01 T03620157  RH  030%=      5-min Rain = 0
KME1 042050Z 15004KT 37/16 A2997 RMK A01 T03670161  RH  030%=      5-min Rain = 0
KME1 042051Z 13003KT 37/16 A2997 RMK A01 T03700156  RH  028%=      5-min Rain = 0
KME1 042052Z 14002KT 37/16 A2997 RMK A01 T03700157  RH  029%=      5-min Rain = 0
KME1 042053Z 09004KT 37/15 A2997 RMK A01 T03710148  RH  027%=      5-min Rain = 0
KME1 042054Z 08007KT 37/15 A2997 RMK A01 T03700145  RH  026%=      5-min Rain = 0
KME1 042055Z 09005KT 37/14 A2997 RMK A01 T03660142  RH  026%=      5-min Rain = 0
KME1 042056Z 07004KT 36/14 A2997 RMK A01 T03640144  RH  027%=      5-min Rain = 0
KME1 042057Z 07006KT 36/14 A2997 RMK A01 T03640141  RH  027%=      5-min Rain = 0
KME1 042058Z 10005KT 36/14 A2997 RMK A01 T03640143  RH  027%=      5-min Rain = 0
KME1 042059Z 12004KT 36/14 A2997 RMK A01 T03630143  RH  027%=      5-min Rain = 0
KME1 042100Z 12007KT 36/15 A2997 RMK A01 T03620147  RH  028%=      5-min Rain = 0
KME1 042101Z 11009KT 36/14 A2997 RMK A01 T03590143  RH  027%=      5-min Rain = 0
KME1 042102Z 10006KT 36/14 A2997 RMK A01 T03550140  RH  028%=      5-min Rain = 0
KME1 042103Z 10003KT 35/14 A2997 RMK A01 T03520139  RH  028%=      5-min Rain = 0
KME1 042104Z 10003KT 35/14 A2997 RMK A01 T03500138  RH  028%=      5-min Rain = 0
KME1 042105Z 11004KT 35/14 A2997 RMK A01 T03490137  RH  028%=      5-min Rain = 0
KME1 042106Z 08005KT 35/14 A2997 RMK A01 T03490143  RH  029%=      5-min Rain = 0
KME1 042107Z 07006KT 35/14 A2997 RMK A01 T03480143  RH  029%=      5-min Rain = 0
KME1 042108Z 07008KT 35/14 A2997 RMK A01 T03480140  RH  029%=      5-min Rain = 0
KME1 042109Z 09010KT 35/14 A2997 RMK A01 T03500143  RH  029%=      5-min Rain = 0
KME1 042110Z 12010KT 36/15 A2997 RMK A01 T03550146  RH  029%=      5-min Rain = 0
KME1 042111Z 13009KT 36/15 A2997 RMK A01 T03620149  RH  028%=      5-min Rain = 0
KME1 042112Z 16007KT 37/15 A2997 RMK A01 T03650147  RH  027%=      5-min Rain = 0
KME1 042113Z 16007KT 37/15 A2996 RMK A01 T03670148  RH  027%=      5-min Rain = 0
KME1 042114Z 15007KT 37/15 A2996 RMK A01 T03680145  RH  026%=      5-min Rain = 0
KME1 042115Z 15005KT 37/15 A2996 RMK A01 T03660147  RH  027%=      5-min Rain = 0
KME1 042116Z 19005KT 37/14 A2996 RMK A01 T03660141  RH  026%=      5-min Rain = 0
KME1 042117Z 20006KT 37/14 A2996 RMK A01 T03660142  RH  026%=      5-min Rain = 0
KME1 042118Z 20006KT 37/14 A2996 RMK A01 T03660142  RH  026%=      5-min Rain = 0
KME1 042119Z 18009KT 37/15 A2996 RMK A01 T03660145  RH  027%=      5-min Rain = 0
KME1 042120Z 18006KT 37/15 A2996 RMK A01 T03660145  RH  027%=      5-min Rain = 0
KME1 042121Z 11006KT 37/15 A2996 RMK A01 T03660147  RH  027%=      5-min Rain = 0
KME1 042122Z 12007KT 37/15 A2996 RMK A01 T03690154  RH  028%=      5-min Rain = 0
KME1 042123Z 15007KT 37/15 A2996 RMK A01 T03720150  RH  027%=      5-min Rain = 0
KME1 042124Z 14007G12KT 37/15 A2996 RMK A01 T03720147  RH  026%=      5-min Rain = 0
KME1 042125Z 13008KT 37/15 A2996 RMK A01 T03730151  RH  027%=      5-min Rain = 0
KME1 042126Z 13007G12KT 37/15 A2996 RMK A01 T03740149  RH  026%=      5-min Rain = 0
KME1 042127Z 13007KT 37/15 A2996 RMK A01 T03740149  RH  026%=      5-min Rain = 0
KME1 042128Z 10005KT 37/14 A2996 RMK A01 T03720143  RH  026%=      5-min Rain = 0
KME1 042129Z 11003KT 37/14 A2996 RMK A01 T03680140  RH  026%=      5-min Rain = 0
KME1 042130Z 09003KT 37/14 A2996 RMK A01 T03650137  RH  026%=      5-min Rain = 0
KME1 042131Z 13008KT 37/14 A2995 RMK A01 T03650144  RH  027%=      5-min Rain = 0
KME1 042132Z 11007KT 37/14 A2995 RMK A01 T03660144  RH  027%=      5-min Rain = 0
KME1 042133Z 12005KT 37/14 A2995 RMK A01 T03670143  RH  026%=      5-min Rain = 0
KME1 042134Z 08002KT 37/14 A2995 RMK A01 T03660142  RH  026%=      5-min Rain = 0
KME1 042135Z 07003KT 37/14 A2995 RMK A01 T03660140  RH  026%=      5-min Rain = 0
KME1 042136Z 05003KT 37/14 A2995 RMK A01 T03660142  RH  026%=      5-min Rain = 0
KME1 042137Z 06008KT 37/15 A2995 RMK A01 T03690150  RH  027%=      5-min Rain = 0
KME1 042138Z 04009KT 37/14 A2995 RMK A01 T03710142  RH  026%=      5-min Rain = 0
KME1 042139Z 04005KT 37/14 A2995 RMK A01 T03670137  RH  025%=      5-min Rain = 0
KME1 042140Z 10004KT 37/14 A2995 RMK A01 T03650141  RH  026%=      5-min Rain = 0
KME1 042141Z 11008KT 37/14 A2995 RMK A01 T03650142  RH  027%=      5-min Rain = 0
KME1 042142Z 13008KT 37/14 A2995 RMK A01 T03650143  RH  027%=      5-min Rain = 0
KME1 042143Z 12009KT 37/14 A2995 RMK A01 T03660144  RH  027%=      5-min Rain = 0
KME1 042144Z 11007KT 37/14 A2995 RMK A01 T03660143  RH  027%=      5-min Rain = 0
KME1 042145Z 11007KT 37/15 A2995 RMK A01 T03660146  RH  027%=      5-min Rain = 0
KME1 042146Z 11007KT 37/14 A2995 RMK A01 T03660143  RH  027%=      5-min Rain = 0
KME1 042147Z 13007KT 37/14 A2995 RMK A01 T03660141  RH  026%=      5-min Rain = 0
KME1 042148Z 14004KT 37/14 A2995 RMK A01 T03650137  RH  026%=      5-min Rain = 0
KME1 042149Z 05002KT 36/14 A2994 RMK A01 T03630137  RH  026%=      5-min Rain = 0
KME1 042150Z 17003KT 36/14 A2994 RMK A01 T03630138  RH  026%=      5-min Rain = 0
KME1 042151Z 14004KT 37/14 A2994 RMK A01 T03650141  RH  026%=      5-min Rain = 0
KME1 042152Z 08006KT 37/14 A2994 RMK A01 T03660144  RH  027%=      5-min Rain = 0
KME1 042153Z 10005KT 37/15 A2994 RMK A01 T03670145  RH  027%=      5-min Rain = 0
KME1 042154Z 10004KT 37/15 A2994 RMK A01 T03670147  RH  027%=      5-min Rain = 0
KME1 042155Z 08003KT 37/15 A2994 RMK A01 T03670147  RH  027%=      5-min Rain = 0
KME1 042156Z 07002KT 37/15 A2994 RMK A01 T03670145  RH  027%=      5-min Rain = 0
KME1 042157Z 11003KT 37/15 A2994 RMK A01 T03680148  RH  027%=      5-min Rain = 0
KME1 042158Z 13002KT 37/14 A2994 RMK A01 T03680144  RH  026%=      5-min Rain = 0
KME1 042159Z 15003KT 37/14 A2994 RMK A01 T03680142  RH  026%=      5-min Rain = 0
KME1 042200Z 15005KT 37/14 A2993 RMK A01 T03680140  RH  026%=      5-min Rain = 0
KME1 042201Z 14005KT 37/14 A2993 RMK A01 T03670143  RH  026%=      5-min Rain = 0
KME1 042202Z 14004KT 37/14 A2993 RMK A01 T03660142  RH  026%=      5-min Rain = 0
KME1 042203Z 13004KT 37/14 A2993 RMK A01 T03650141  RH  026%=      5-min Rain = 0
KME1 042204Z 14001KT 37/14 A2993 RMK A01 T03650142  RH  026%=      5-min Rain = 0
KME1 042205Z 17002KT 37/14 A2993 RMK A01 T03650140  RH  026%=      5-min Rain = 0
KME1 042206Z 17004KT 37/15 A2993 RMK A01 T03690149  RH  027%=      5-min Rain = 0
KME1 042207Z 17003KT 37/15 A2993 RMK A01 T03710145  RH  026%=      5-min Rain = 0
KME1 042208Z 18005KT 37/15 A2993 RMK A01 T03710146  RH  026%=      5-min Rain = 0
KME1 042209Z 18006KT 37/15 A2993 RMK A01 T03720146  RH  026%=      5-min Rain = 0
KME1 042210Z 15006KT 37/15 A2993 RMK A01 T03700150  RH  027%=      5-min Rain = 0
KME1 042211Z 13008KT 37/15 A2993 RMK A01 T03700152  RH  027%=      5-min Rain = 0
KME1 042212Z 13005KT 37/15 A2993 RMK A01 T03710152  RH  027%=      5-min Rain = 0
KME1 042213Z 13005KT 37/15 A2993 RMK A01 T03710151  RH  027%=      5-min Rain = 0
KME1 042214Z 11006KT 37/15 A2993 RMK A01 T03700152  RH  027%=      5-min Rain = 0
KME1 042215Z 10005KT 37/15 A2993 RMK A01 T03680148  RH  027%=      5-min Rain = 0
KME1 042216Z 10007KT 37/15 A2993 RMK A01 T03660147  RH  027%=      5-min Rain = 0
KME1 042217Z 09006KT 37/15 A2993 RMK A01 T03650149  RH  028%=      5-min Rain = 0
KME1 042218Z 09006KT 37/15 A2993 RMK A01 T03650150  RH  028%=      5-min Rain = 0
KME1 042219Z 10004KT 37/15 A2992 RMK A01 T03660151  RH  028%=      5-min Rain = 0
KME1 042220Z 11003KT 37/16 A2992 RMK A01 T03670155  RH  028%=      5-min Rain = 0
KME1 042221Z 11002KT 37/15 A2992 RMK A01 T03690148  RH  027%=      5-min Rain = 0
KME1 042222Z 11002KT 37/15 A2992 RMK A01 T03670147  RH  027%=      5-min Rain = 0
KME1 042223Z 13005KT 37/15 A2993 RMK A01 T03670146  RH  027%=      5-min Rain = 0
KME1 042224Z 08005KT 37/15 A2992 RMK A01 T03660146  RH  027%=      5-min Rain = 0
KME1 042225Z 05005KT 37/15 A2992 RMK A01 T03650148  RH  028%=      5-min Rain = 0
KME1 042226Z 08006KT 37/15 A2992 RMK A01 T03650150  RH  028%=      5-min Rain = 0
KME1 042227Z 07006KT 37/15 A2992 RMK A01 T03650151  RH  028%=      5-min Rain = 0
KME1 042228Z 08004KT 37/15 A2992 RMK A01 T03660152  RH  028%=      5-min Rain = 0
KME1 042229Z 10005KT 37/16 A2992 RMK A01 T03670156  RH  029%=      5-min Rain = 0
KME1 042230Z 13006KT 37/15 A2992 RMK A01 T03690150  RH  027%=      5-min Rain = 0
KME1 042231Z 10005KT 37/15 A2992 RMK A01 T03670149  RH  027%=      5-min Rain = 0
KME1 042232Z 08008KT 37/16 A2992 RMK A01 T03670155  RH  029%=      5-min Rain = 0
KME1 042233Z 10007G12KT 37/16 A2992 RMK A01 T03680156  RH  029%=      5-min Rain = 0
KME1 042234Z 11008KT 37/15 A2992 RMK A01 T03700153  RH  028%=      5-min Rain = 0
KME1 042235Z 11008KT 37/15 A2992 RMK A01 T03680151  RH  027%=      5-min Rain = 0
KME1 042236Z 09006KT 37/15 A2992 RMK A01 T03660154  RH  028%=      5-min Rain = 0
KME1 042237Z 09009KT 37/15 A2992 RMK A01 T03670151  RH  028%=      5-min Rain = 0
KME1 042238Z 09007KT 37/15 A2992 RMK A01 T03660148  RH  027%=      5-min Rain = 0
KME1 042239Z 07006KT 36/15 A2992 RMK A01 T03640148  RH  028%=      5-min Rain = 0
KME1 042240Z 08007KT 36/15 A2991 RMK A01 T03630147  RH  028%=      5-min Rain = 0
KME1 042241Z 10007KT 36/15 A2991 RMK A01 T03620148  RH  028%=      5-min Rain = 0
KME1 042242Z 10005KT 36/15 A2991 RMK A01 T03620150  RH  028%=      5-min Rain = 0
KME1 042243Z 10005KT 36/15 A2991 RMK A01 T03640150  RH  028%=      5-min Rain = 0
KME1 042244Z 12005KT 36/15 A2991 RMK A01 T03640148  RH  028%=      5-min Rain = 0
KME1 042245Z 14006KT 36/15 A2991 RMK A01 T03640153  RH  029%=      5-min Rain = 0
KME1 042246Z 11006KT 37/15 A2991 RMK A01 T03660154  RH  028%=      5-min Rain = 0
KME1 042247Z 10005KT 37/15 A2991 RMK A01 T03680154  RH  028%=      5-min Rain = 0
KME1 042248Z 10005KT 37/15 A2991 RMK A01 T03690153  RH  028%=      5-min Rain = 0
KME1 042249Z 14006KT 37/15 A2991 RMK A01 T03690149  RH  027%=      5-min Rain = 0
KME1 042250Z 14004KT 37/15 A2991 RMK A01 T03680146  RH  027%=      5-min Rain = 0
KME1 042251Z 12003KT 37/14 A2991 RMK A01 T03670144  RH  027%=      5-min Rain = 0
KME1 042252Z 13003KT 37/15 A2991 RMK A01 T03660148  RH  027%=      5-min Rain = 0
KME1 042253Z 15003KT 37/15 A2991 RMK A01 T03670150  RH  028%=      5-min Rain = 0
KME1 042254Z 09004KT 37/15 A2991 RMK A01 T03690152  RH  028%=      5-min Rain = 0
KME1 042255Z 11005KT 37/15 A2991 RMK A01 T03710151  RH  027%=      5-min Rain = 0
KME1 042256Z 09005KT 37/15 A2991 RMK A01 T03700148  RH  027%=      5-min Rain = 0
KME1 042257Z 07005KT 37/15 A2991 RMK A01 T03670146  RH  027%=      5-min Rain = 0
KME1 042258Z 09001KT 37/14 A2991 RMK A01 T03650143  RH  027%=      5-min Rain = 0
KME1 042259Z 12003KT 37/15 A2991 RMK A01 T03650148  RH  028%=      5-min Rain = 0
KME1 042300Z 17001KT 37/14 A2991 RMK A01 T03660142  RH  026%=      5-min Rain = 0
KME1 042301Z 05001KT 37/14 A2991 RMK A01 T03660143  RH  027%=      5-min Rain = 0
KME1 042302Z 03001KT 37/14 A2991 RMK A01 T03660144  RH  027%=      5-min Rain = 0
KME1 042303Z 03000KT 37/14 A2991 RMK A01 T03680144  RH  026%=      5-min Rain = 0
KME1 042304Z 13002KT 37/14 A2991 RMK A01 T03690144  RH  026%=      5-min Rain = 0
KME1 042305Z 07003KT 37/15 A299 RMK A01 T03700148  RH  027%=      5-min Rain = 0
KME1 042306Z 12003KT 37/15 A299 RMK A01 T03700145  RH  026%=      5-min Rain = 0
KME1 042307Z 16003KT 37/15 A299 RMK A01 T03700148  RH  027%=      5-min Rain = 0
KME1 042308Z 13003KT 37/15 A299 RMK A01 T03700147  RH  027%=      5-min Rain = 0
KME1 042309Z 10004KT 37/15 A299 RMK A01 T03700149  RH  027%=      5-min Rain = 0
KME1 042310Z 12008KT 37/15 A299 RMK A01 T03710153  RH  028%=      5-min Rain = 0
KME1 042311Z 11009KT 37/15 A299 RMK A01 T03700146  RH  026%=      5-min Rain = 0
KME1 042312Z 12006KT 37/15 A299 RMK A01 T03680146  RH  027%=      5-min Rain = 0
KME1 042313Z 17004KT 37/15 A299 RMK A01 T03670150  RH  028%=      5-min Rain = 0
KME1 042314Z 17005KT 37/15 A299 RMK A01 T03680150  RH  027%=      5-min Rain = 0
KME1 042315Z 19007KT 37/15 A299 RMK A01 T03690153  RH  028%=      5-min Rain = 0
KME1 042316Z 17008KT 37/15 A299 RMK A01 T03700150  RH  027%=      5-min Rain = 0
KME1 042317Z 15006KT 37/15 A299 RMK A01 T03700148  RH  027%=      5-min Rain = 0
KME1 042318Z 14006KT 37/15 A299 RMK A01 T03690148  RH  027%=      5-min Rain = 0
KME1 042319Z 14004KT 37/15 A299 RMK A01 T03690151  RH  027%=      5-min Rain = 0
KME1 042320Z 13007KT 37/15 A299 RMK A01 T03690148  RH  027%=      5-min Rain = 0
KME1 042321Z 13007KT 37/15 A299 RMK A01 T03690147  RH  027%=      5-min Rain = 0
KME1 042322Z 12006KT 37/15 A299 RMK A01 T03680147  RH  027%=      5-min Rain = 0
KME1 042323Z 10006KT 37/14 A299 RMK A01 T03670141  RH  026%=      5-min Rain = 0
KME1 042324Z 10005KT 37/14 A299 RMK A01 T03650139  RH  026%=      5-min Rain = 0
KME1 042325Z 09004KT 36/14 A299 RMK A01 T03640142  RH  027%=      5-min Rain = 0
KME1 042326Z 12003KT 36/14 A299 RMK A01 T03640139  RH  026%=      5-min Rain = 0
KME1 042327Z 15004KT 36/14 A299 RMK A01 T03640143  RH  027%=      5-min Rain = 0
KME1 042328Z 12003KT 37/15 A299 RMK A01 T03650146  RH  027%=      5-min Rain = 0
KME1 042329Z 12005KT 37/15 A299 RMK A01 T03670148  RH  027%=      5-min Rain = 0
KME1 042330Z 10006KT 37/14 A299 RMK A01 T03690141  RH  026%=      5-min Rain = 0
KME1 042331Z 12008KT 37/14 A299 RMK A01 T03670141  RH  026%=      5-min Rain = 0
KME1 042332Z 12007KT 37/14 A299 RMK A01 T03660143  RH  027%=      5-min Rain = 0
KME1 042333Z 11007KT 37/14 A299 RMK A01 T03650143  RH  027%=      5-min Rain = 0
KME1 042334Z 14008KT 37/14 A299 RMK A01 T03650142  RH  026%=      5-min Rain = 0
KME1 042335Z 15006KT 37/14 A299 RMK A01 T03650142  RH  027%=      5-min Rain = 0
KME1 042336Z 16009KT 37/14 A299 RMK A01 T03650141  RH  026%=      5-min Rain = 0
KME1 042337Z 19005KT 37/14 A299 RMK A01 T03660139  RH  026%=      5-min Rain = 0
KME1 042338Z 21004KT 37/14 A299 RMK A01 T03660140  RH  026%=      5-min Rain = 0
KME1 042339Z 13004KT 37/14 A299 RMK A01 T03660140  RH  026%=      5-min Rain = 0
KME1 042340Z 12006KT 37/14 A299 RMK A01 T03660142  RH  026%=      5-min Rain = 0
KME1 042341Z 13007KT 37/14 A299 RMK A01 T03660142  RH  026%=      5-min Rain = 0
KME1 042342Z 14005KT 37/14 A299 RMK A01 T03650137  RH  026%=      5-min Rain = 0
KME1 042343Z 11003KT 36/14 A299 RMK A01 T03640137  RH  026%=      5-min Rain = 0
KME1 042344Z 14002KT 36/14 A299 RMK A01 T03640141  RH  026%=      5-min Rain = 0
KME1 042345Z 15003KT 37/14 A299 RMK A01 T03650141  RH  026%=      5-min Rain = 0
KME1 042346Z 18002KT 37/14 A299 RMK A01 T03670140  RH  026%=      5-min Rain = 0
KME1 042347Z 14001KT 37/14 A299 RMK A01 T03680138  RH  025%=      5-min Rain = 0
KME1 042348Z 11000KT 37/14 A299 RMK A01 T03680138  RH  025%=      5-min Rain = 0
KME1 042349Z 10002KT 37/14 A299 RMK A01 T03690140  RH  025%=      5-min Rain = 0
KME1 042350Z 09003KT 37/14 A2989 RMK A01 T03690142  RH  026%=      5-min Rain = 0
KME1 042351Z 10005KT 37/14 A299 RMK A01 T03680141  RH  026%=      5-min Rain = 0
KME1 042352Z 11005KT 37/14 A299 RMK A01 T03670141  RH  026%=      5-min Rain = 0
KME1 042353Z 11003KT 37/14 A2989 RMK A01 T03650136  RH  026%=      5-min Rain = 0
KME1 042354Z 10003KT 36/14 A2989 RMK A01 T03640140  RH  026%=      5-min Rain = 0
KME1 042355Z 10005KT 36/14 A2989 RMK A01 T03640138  RH  026%=      5-min Rain = 0
KME1 042356Z 11005KT 36/14 A2989 RMK A01 T03640137  RH  026%=      5-min Rain = 0
KME1 042357Z 12007KT 36/14 A2989 RMK A01 T03640139  RH  026%=      5-min Rain = 0
KME1 042358Z 14005KT 36/14 A2989 RMK A01 T03640140  RH  026%=      5-min Rain = 0
KME1 042359Z 17005KT 36/14 A2989 RMK A01 T03640144  RH  027%=      5-min Rain = 0
KME1 050000Z 17005KT 37/14 A2989 RMK A01 T03650138  RH  026%=      5-min Rain = 0
KME1 050001Z 16004KT 36/14 A2989 RMK A01 T03640139  RH  026%=      5-min Rain = 0
KME1 050002Z 14004KT 37/15 A2989 RMK A01 T03650145  RH  027%=      5-min Rain = 0
KME1 050003Z 15004KT 37/14 A2989 RMK A01 T03660142  RH  026%=      5-min Rain = 0
KME1 050004Z 14007KT 37/14 A2989 RMK A01 T03660143  RH  027%=      5-min Rain = 0
KME1 050005Z 14007KT 37/14 A2989 RMK A01 T03650139  RH  026%=      5-min Rain = 0
KME1 050006Z 14005KT 37/14 A2989 RMK A01 T03650136  RH  026%=      5-min Rain = 0
KME1 050007Z 15004KT 36/14 A2989 RMK A01 T03640136  RH  026%=      5-min Rain = 0
KME1 050008Z 14004KT 36/14 A2989 RMK A01 T03630140  RH  026%=      5-min Rain = 0
KME1 050009Z 17004KT 36/14 A2989 RMK A01 T03630143  RH  027%=      5-min Rain = 0
KME1 050010Z 15004KT 36/14 A2989 RMK A01 T03640141  RH  026%=      5-min Rain = 0
KME1 050011Z 17003KT 37/14 A2989 RMK A01 T03650142  RH  026%=      5-min Rain = 0
KME1 050012Z 18006KT 36/14 A2989 RMK A01 T03640141  RH  026%=      5-min Rain = 0
KME1 050013Z 18007KT 36/14 A2989 RMK A01 T03640138  RH  026%=      5-min Rain = 0
KME1 050014Z 17005KT 36/14 A2989 RMK A01 T03630138  RH  026%=      5-min Rain = 0
KME1 050015Z 16004KT 36/14 A2989 RMK A01 T03620140  RH  027%=      5-min Rain = 0
KME1 050016Z 17006KT 36/14 A2989 RMK A01 T03620143  RH  027%=      5-min Rain = 0
KME1 050017Z 18007KT 36/14 A2989 RMK A01 T03620140  RH  027%=      5-min Rain = 0
KME1 050018Z 17005KT 36/14 A2989 RMK A01 T03620143  RH  027%=      5-min Rain = 0
KME1 050019Z 18006KT 36/15 A2989 RMK A01 T03620145  RH  027%=      5-min Rain = 0
KME1 050020Z 18005KT 36/14 A2989 RMK A01 T03620141  RH  027%=      5-min Rain = 0
KME1 050021Z 18005KT 36/14 A2989 RMK A01 T03620138  RH  026%=      5-min Rain = 0
KME1 050022Z 17004KT 36/14 A2989 RMK A01 T03620139  RH  026%=      5-min Rain = 0
KME1 050023Z 16003KT 36/14 A2989 RMK A01 T03620140  RH  027%=      5-min Rain = 0
KME1 050024Z 15005KT 36/15 A2989 RMK A01 T03620145  RH  027%=      5-min Rain = 0
KME1 050025Z 12005KT 36/14 A2989 RMK A01 T03620144  RH  027%=      5-min Rain = 0
KME1 050026Z 13006KT 36/14 A2989 RMK A01 T03620141  RH  027%=      5-min Rain = 0
KME1 050027Z 13006KT 36/14 A2989 RMK A01 T03610141  RH  027%=      5-min Rain = 0
KME1 050028Z 14005KT 36/14 A2989 RMK A01 T03610144  RH  028%=      5-min Rain = 0
KME1 050029Z 15005KT 36/14 A2989 RMK A01 T03600144  RH  027%=      5-min Rain = 0
KME1 050030Z 15004KT 36/15 A2989 RMK A01 T03610148  RH  028%=      5-min Rain = 0
KME1 050031Z 16005KT 36/15 A2989 RMK A01 T03610147  RH  028%=      5-min Rain = 0
KME1 050032Z 16006KT 36/14 A2989 RMK A01 T03610144  RH  027%=      5-min Rain = 0
KME1 050033Z 17007KT 36/14 A2989 RMK A01 T03610142  RH  027%=      5-min Rain = 0
KME1 050034Z 17006KT 36/14 A2989 RMK A01 T03600139  RH  027%=      5-min Rain = 0
KME1 050035Z 18006KT 36/14 A2989 RMK A01 T03590141  RH  027%=      5-min Rain = 0
KME1 050036Z 17006KT 36/14 A2989 RMK A01 T03590141  RH  027%=      5-min Rain = 0
KME1 050037Z 16005KT 36/14 A2989 RMK A01 T03590141  RH  027%=      5-min Rain = 0
KME1 050038Z 16005KT 36/14 A2989 RMK A01 T03590142  RH  027%=      5-min Rain = 0
KME1 050039Z 16005KT 36/14 A2989 RMK A01 T03590141  RH  027%=      5-min Rain = 0
KME1 050040Z 16003KT 36/14 A2989 RMK A01 T03590141  RH  027%=      5-min Rain = 0
KME1 050041Z 16003KT 36/15 A2989 RMK A01 T03590146  RH  028%=      5-min Rain = 0
KME1 050042Z 16004KT 36/14 A2989 RMK A01 T03590142  RH  027%=      5-min Rain = 0
KME1 050043Z 15004KT 36/14 A2989 RMK A01 T03590140  RH  027%=      5-min Rain = 0
KME1 050044Z 17006KT 36/14 A2989 RMK A01 T03580138  RH  027%=      5-min Rain = 0
KME1 050045Z 18005KT 36/14 A2989 RMK A01 T03580142  RH  027%=      5-min Rain = 0
KME1 050046Z 15004KT 36/14 A2989 RMK A01 T03580143  RH  028%=      5-min Rain = 0
KME1 050047Z 15004KT 36/14 A2989 RMK A01 T03570143  RH  028%=      5-min Rain = 0
KME1 050048Z 15004KT 36/14 A2989 RMK A01 T03570140  RH  027%=      5-min Rain = 0
KME1 050049Z 15004KT 36/14 A2989 RMK A01 T03570140  RH  027%=      5-min Rain = 0
KME1 050050Z 16004KT 36/14 A299 RMK A01 T03570144  RH  028%=      5-min Rain = 0
KME1 050051Z 17004KT 36/15 A299 RMK A01 T03570145  RH  028%=      5-min Rain = 0
KME1 050052Z 16006KT 36/14 A299 RMK A01 T03560142  RH  028%=      5-min Rain = 0
KME1 050053Z 16006KT 36/14 A299 RMK A01 T03550142  RH  028%=      5-min Rain = 0
KME1 050054Z 16005KT 36/14 A299 RMK A01 T03550141  RH  028%=      5-min Rain = 0
KME1 050055Z 17004KT 35/14 A299 RMK A01 T03540142  RH  028%=      5-min Rain = 0
KME1 050056Z 16004KT 35/14 A299 RMK A01 T03540142  RH  028%=      5-min Rain = 0
KME1 050057Z 15004KT 35/14 A299 RMK A01 T03530140  RH  028%=      5-min Rain = 0
KME1 050058Z 16004KT 35/14 A299 RMK A01 T03530142  RH  028%=      5-min Rain = 0
KME1 050059Z 16004KT 35/14 A299 RMK A01 T03520144  RH  029%=      5-min Rain = 0
KME1 050100Z 16004KT 35/14 A299 RMK A01 T03510142  RH  029%=      5-min Rain = 0
KME1 050101Z 15004KT 35/14 A299 RMK A01 T03510143  RH  029%=      5-min Rain = 0
KME1 050102Z 16004KT 35/14 A299 RMK A01 T03500143  RH  029%=      5-min Rain = 0
KME1 050103Z 16005KT 35/14 A299 RMK A01 T03500140  RH  028%=      5-min Rain = 0
KME1 050104Z 16004KT 35/14 A299 RMK A01 T03500142  RH  029%=      5-min Rain = 0
KME1 050105Z 16004KT 35/15 A299 RMK A01 T03500145  RH  029%=      5-min Rain = 0
KME1 050106Z 15003KT 35/15 A299 RMK A01 T03490146  RH  030%=      5-min Rain = 0
KME1 050107Z 14002KT 35/15 A299 RMK A01 T03480151  RH  031%=      5-min Rain = 0
KME1 050108Z 15003KT 35/15 A299 RMK A01 T03480152  RH  031%=      5-min Rain = 0
KME1 050109Z 15003KT 35/15 A299 RMK A01 T03470151  RH  031%=      5-min Rain = 0
KME1 050110Z 15002KT 35/15 A299 RMK A01 T03470152  RH  031%=      5-min Rain = 0
KME1 050111Z 14003KT 35/15 A299 RMK A01 T03460153  RH  031%=      5-min Rain = 0
KME1 050112Z 13003KT 35/15 A299 RMK A01 T03460154  RH  032%=      5-min Rain = 0
KME1 050113Z 14003KT 35/15 A299 RMK A01 T03460154  RH  032%=      5-min Rain = 0
KME1 050114Z 13003KT 35/15 A299 RMK A01 T03450153  RH  032%=      5-min Rain = 0
KME1 050115Z 13003KT 34/15 A299 RMK A01 T03440149  RH  031%=      5-min Rain = 0
KME1 050116Z 14003KT 34/15 A299 RMK A01 T03440151  RH  031%=      5-min Rain = 0
KME1 050117Z 14003KT 34/15 A2991 RMK A01 T03430149  RH  031%=      5-min Rain = 0
KME1 050118Z 14003KT 34/15 A2991 RMK A01 T03420148  RH  031%=      5-min Rain = 0
KME1 050119Z 14003KT 34/15 A2991 RMK A01 T03420149  RH  032%=      5-min Rain = 0
KME1 050120Z 14002KT 34/15 A2991 RMK A01 T03410151  RH  032%=      5-min Rain = 0
KME1 050121Z 14002KT 34/15 A2991 RMK A01 T03410151  RH  032%=      5-min Rain = 0
KME1 050122Z 14002KT 34/15 A2991 RMK A01 T03400151  RH  032%=      5-min Rain = 0
KME1 050123Z 14002KT 34/15 A2991 RMK A01 T03400152  RH  032%=      5-min Rain = 0
KME1 050124Z 14002KT 34/15 A2991 RMK A01 T03390153  RH  033%=      5-min Rain = 0
KME1 050125Z 14002KT 34/15 A2991 RMK A01 T03390152  RH  033%=      5-min Rain = 0
KME1 050126Z 14003KT 34/15 A2991 RMK A01 T03380153  RH  033%=      5-min Rain = 0
KME1 050127Z 13002KT 34/16 A2991 RMK A01 T03380158  RH  034%=      5-min Rain = 0
KME1 050128Z 12003KT 34/15 A2991 RMK A01 T03370153  RH  033%=      5-min Rain = 0
KME1 050129Z 13003KT 34/15 A2991 RMK A01 T03370153  RH  033%=      5-min Rain = 0
KME1 050130Z 14003KT 34/15 A2991 RMK A01 T03360152  RH  033%=      5-min Rain = 0
KME1 050131Z 14003KT 34/15 A2991 RMK A01 T03360154  RH  034%=      5-min Rain = 0
KME1 050132Z 14003KT 34/15 A2991 RMK A01 T03350150  RH  033%=      5-min Rain = 0
KME1 050133Z 14003KT 33/15 A2991 RMK A01 T03340150  RH  033%=      5-min Rain = 0
KME1 050134Z 14003KT 33/15 A2991 RMK A01 T03330150  RH  033%=      5-min Rain = 0
KME1 050135Z 14003KT 33/15 A2991 RMK A01 T03320154  RH  034%=      5-min Rain = 0
KME1 050136Z 14002KT 33/16 A2991 RMK A01 T03310156  RH  035%=      5-min Rain = 0
KME1 050137Z 14002KT 33/17 A2991 RMK A01 T03300167  RH  038%=      5-min Rain = 0
KME1 050138Z 13002KT 33/16 A2991 RMK A01 T03290162  RH  037%=      5-min Rain = 0
KME1 050139Z 13002KT 33/16 A2991 RMK A01 T03280160  RH  036%=      5-min Rain = 0
KME1 050140Z 14002KT 33/16 A2991 RMK A01 T03280158  RH  036%=      5-min Rain = 0
KME1 050141Z 13002KT 33/16 A2991 RMK A01 T03270157  RH  036%=      5-min Rain = 0
KME1 050142Z 13002KT 33/15 A2991 RMK A01 T03270153  RH  035%=      5-min Rain = 0
KME1 050143Z 12002KT 33/15 A2991 RMK A01 T03260151  RH  035%=      5-min Rain = 0
KME1 050144Z 12002KT 33/15 A2991 RMK A01 T03250152  RH  035%=      5-min Rain = 0
KME1 050145Z 12002KT 33/16 A2991 RMK A01 T03250156  RH  036%=      5-min Rain = 0
KME1 050146Z 12002KT 32/16 A2991 RMK A01 T03240156  RH  036%=      5-min Rain = 0
KME1 050147Z 12002KT 32/16 A2991 RMK A01 T03230158  RH  037%=      5-min Rain = 0
KME1 050148Z 11002KT 32/16 A2991 RMK A01 T03230159  RH  037%=      5-min Rain = 0
KME1 050149Z 11002KT 32/16 A2991 RMK A01 T03220160  RH  038%=      5-min Rain = 0
KME1 050150Z 11002KT 32/16 A2991 RMK A01 T03210157  RH  037%=      5-min Rain = 0
KME1 050151Z 10002KT 32/17 A2991 RMK A01 T03200166  RH  040%=      5-min Rain = 0
KME1 050152Z 10002KT 32/18 A2991 RMK A01 T03180180  RH  044%=      5-min Rain = 0
KME1 050153Z 10001KT 32/18 A2991 RMK A01 T03150183  RH  045%=      5-min Rain = 0
KME1 050154Z 09000KT 31/18 A2991 RMK A01 T03120184  RH  046%=      5-min Rain = 0
KME1 050155Z 09001KT 31/18 A2991 RMK A01 T03080180  RH  046%=      5-min Rain = 0
KME1 050156Z 09001KT 31/17 A2991 RMK A01 T03060170  RH  044%=      5-min Rain = 0
KME1 050157Z 10000KT 31/18 A2991 RMK A01 T03050176  RH  046%=      5-min Rain = 0
KME1 050158Z 09000KT 30/17 A2991 RMK A01 T03040172  RH  045%=      5-min Rain = 0
KME1 050159Z 08000KT 30/18 A2991 RMK A01 T03040179  RH  047%=      5-min Rain = 0
KME1 050200Z 08001KT 30/18 A2992 RMK A01 T03030175  RH  046%=      5-min Rain = 0
KME1 050201Z 07001KT 30/16 A2992 RMK A01 T03030162  RH  043%=      5-min Rain = 0
KME1 050202Z 06001KT 30/16 A2992 RMK A01 T03030162  RH  043%=      5-min Rain = 0
KME1 050203Z 04001KT 30/16 A2992 RMK A01 T03040164  RH  043%=      5-min Rain = 0
KME1 050204Z 03001KT 30/16 A2992 RMK A01 T03040163  RH  043%=      5-min Rain = 0
KME1 050205Z 03001KT 31/16 A2992 RMK A01 T03050161  RH  042%=      5-min Rain = 0
KME1 050206Z 03001KT 31/16 A2992 RMK A01 T03060161  RH  042%=      5-min Rain = 0
KME1 050207Z 02001KT 31/17 A2992 RMK A01 T03060167  RH  043%=      5-min Rain = 0
KME1 050208Z 01000KT 30/17 A2992 RMK A01 T03040171  RH  045%=      5-min Rain = 0
KME1 050209Z 00000KT 30/17 A2992 RMK A01 T03020170  RH  045%=      5-min Rain = 0
KME1 050210Z 00000KT 30/16 A2992 RMK A01 T03010163  RH  043%=      5-min Rain = 0
KME1 050211Z 00000KT 30/16 A2992 RMK A01 T03010159  RH  042%=      5-min Rain = 0
KME1 050212Z 05000KT 30/16 A2992 RMK A01 T03030159  RH  042%=      5-min Rain = 0
KME1 050213Z 06001KT 30/16 A2992 RMK A01 T03040162  RH  043%=      5-min Rain = 0
KME1 050214Z 06001KT 30/16 A2992 RMK A01 T03040163  RH  043%=      5-min Rain = 0
KME1 050215Z 05001KT 30/17 A2992 RMK A01 T03040171  RH  045%=      5-min Rain = 0
KME1 050216Z 05001KT 30/16 A2992 RMK A01 T03020163  RH  043%=      5-min Rain = 0
KME1 050217Z 02001KT 30/16 A2992 RMK A01 T03020161  RH  042%=      5-min Rain = 0
KME1 050218Z 36001KT 30/18 A2992 RMK A01 T03020175  RH  046%=      5-min Rain = 0
KME1 050219Z 01001KT 30/17 A2992 RMK A01 T03010173  RH  046%=      5-min Rain = 0
KME1 050220Z 02002KT 30/18 A2992 RMK A01 T02980179  RH  049%=      5-min Rain = 0
KME1 050221Z 02002KT 30/18 A2992 RMK A01 T02950177  RH  049%=      5-min Rain = 0
KME1 050222Z 02001KT 29/18 A2992 RMK A01 T02920181  RH  051%=      5-min Rain = 0
KME1 050223Z 03001KT 29/18 A2992 RMK A01 T02900175  RH  050%=      5-min Rain = 0
KME1 050224Z 03001KT 29/17 A2992 RMK A01 T02880171  RH  049%=      5-min Rain = 0
KME1 050225Z 02002KT 29/18 A2993 RMK A01 T02880182  RH  053%=      5-min Rain = 0
KME1 050226Z 03002KT 29/18 A2993 RMK A01 T02870180  RH  052%=      5-min Rain = 0
KME1 050227Z 03001KT 29/18 A2993 RMK A01 T02860181  RH  053%=      5-min Rain = 0
KME1 050228Z 03001KT 29/18 A2993 RMK A01 T02850182  RH  054%=      5-min Rain = 0
KME1 050229Z 00000KT 28/18 A2993 RMK A01 T02840182  RH  054%=      5-min Rain = 0
KME1 050230Z 01000KT 28/18 A2993 RMK A01 T02820178  RH  053%=      5-min Rain = 0
KME1 050231Z 01001KT 28/18 A2993 RMK A01 T02820178  RH  053%=      5-min Rain = 0
KME1 050232Z 01001KT 28/18 A2993 RMK A01 T02810177  RH  053%=      5-min Rain = 0
KME1 050233Z 03001KT 28/18 A2993 RMK A01 T02820175  RH  052%=      5-min Rain = 0
KME1 050234Z 03001KT 28/17 A2993 RMK A01 T02830173  RH  051%=      5-min Rain = 0
KME1 050235Z 02001KT 28/17 A2993 RMK A01 T02840173  RH  051%=      5-min Rain = 0
KME1 050236Z 02001KT 28/18 A2993 RMK A01 T02840178  RH  053%=      5-min Rain = 0
KME1 050237Z 02000KT 28/18 A2993 RMK A01 T02840179  RH  053%=      5-min Rain = 0
KME1 050238Z 00000KT 28/17 A2993 RMK A01 T02830174  RH  052%=      5-min Rain = 0
KME1 050239Z 00000KT 28/17 A2993 RMK A01 T02830166  RH  049%=      5-min Rain = 0
KME1 050240Z 31000KT 29/16 A2993 RMK A01 T02850163  RH  048%=      5-min Rain = 0
KME1 050241Z 32000KT 29/16 A2993 RMK A01 T02880164  RH  047%=      5-min Rain = 0
KME1 050242Z 00000KT 29/16 A2993 RMK A01 T02900162  RH  046%=      5-min Rain = 0
KME1 050243Z 00000KT 29/17 A2993 RMK A01 T02920170  RH  048%=      5-min Rain = 0
KME1 050244Z 00001KT 29/17 A2993 RMK A01 T02920173  RH  049%=      5-min Rain = 0
KME1 050245Z 01001KT 29/17 A2993 RMK A01 T02900172  RH  049%=      5-min Rain = 0
KME1 050246Z 00001KT 29/18 A2993 RMK A01 T02890179  RH  051%=      5-min Rain = 0
KME1 050247Z 00002KT 29/18 A2993 RMK A01 T02870179  RH  052%=      5-min Rain = 0
KME1 050248Z 35002KT 29/18 A2993 RMK A01 T02850184  RH  054%=      5-min Rain = 0
KME1 050249Z 34002KT 28/19 A2993 RMK A01 T02830191  RH  057%=      5-min Rain = 0
KME1 050250Z 34002KT 28/19 A2993 RMK A01 T02810189  RH  057%=      5-min Rain = 0
KME1 050251Z 34002KT 28/19 A2993 RMK A01 T02790187  RH  057%=      5-min Rain = 0
KME1 050252Z 34002KT 28/18 A2993 RMK A01 T02780183  RH  056%=      5-min Rain = 0
KME1 050253Z 35002KT 28/18 A2993 RMK A01 T02780179  RH  055%=      5-min Rain = 0
KME1 050254Z 35002KT 28/18 A2993 RMK A01 T02780182  RH  056%=      5-min Rain = 0
KME1 050255Z 35002KT 28/18 A2993 RMK A01 T02780184  RH  057%=      5-min Rain = 0
KME1 050256Z 01002KT 28/18 A2993 RMK A01 T02780178  RH  055%=      5-min Rain = 0
KME1 050257Z 01002KT 28/18 A2993 RMK A01 T02780178  RH  054%=      5-min Rain = 0
KME1 050258Z 36003KT 28/18 A2993 RMK A01 T02790178  RH  054%=      5-min Rain = 0
KME1 050259Z 35003KT 28/18 A2994 RMK A01 T02800177  RH  054%=      5-min Rain = 0
KME1 050300Z 00003KT 28/18 A2994 RMK A01 T02800176  RH  053%=      5-min Rain = 0
KME1 050301Z 36003KT 28/17 A2994 RMK A01 T02810172  RH  052%=      5-min Rain = 0
KME1 050302Z 00003KT 28/17 A2994 RMK A01 T02810171  RH  051%=      5-min Rain = 0
KME1 050303Z 00003KT 28/17 A2994 RMK A01 T02820171  RH  051%=      5-min Rain = 0
KME1 050304Z 00003KT 28/17 A2994 RMK A01 T02830171  RH  051%=      5-min Rain = 0
KME1 050305Z 36002KT 28/17 A2994 RMK A01 T02830171  RH  051%=      5-min Rain = 0
KME1 050306Z 36002KT 28/17 A2994 RMK A01 T02840173  RH  051%=      5-min Rain = 0
KME1 050307Z 35003KT 28/17 A2994 RMK A01 T02840173  RH  051%=      5-min Rain = 0
KME1 050308Z 35003KT 28/17 A2994 RMK A01 T02840174  RH  051%=      5-min Rain = 0
KME1 050309Z 35002KT 28/18 A2994 RMK A01 T02840175  RH  052%=      5-min Rain = 0
KME1 050310Z 35002KT 28/17 A2994 RMK A01 T02830172  RH  051%=      5-min Rain = 0
KME1 050311Z 33002KT 28/18 A2994 RMK A01 T02830175  RH  052%=      5-min Rain = 0
KME1 050312Z 33002KT 28/18 A2994 RMK A01 T02830177  RH  053%=      5-min Rain = 0
KME1 050313Z 34001KT 28/17 A2994 RMK A01 T02830174  RH  052%=      5-min Rain = 0
KME1 050314Z 32001KT 28/17 A2994 RMK A01 T02820173  RH  051%=      5-min Rain = 0
KME1 050315Z 32001KT 28/18 A2994 RMK A01 T02820181  RH  054%=      5-min Rain = 0
KME1 050316Z 33001KT 28/18 A2994 RMK A01 T02820183  RH  055%=      5-min Rain = 0
KME1 050317Z 33001KT 28/19 A2994 RMK A01 T02810186  RH  056%=      5-min Rain = 0
KME1 050318Z 31000KT 28/19 A2994 RMK A01 T02800191  RH  058%=      5-min Rain = 0
KME1 050319Z 34001KT 28/19 A2994 RMK A01 T02780190  RH  059%=      5-min Rain = 0
KME1 050320Z 34001KT 28/19 A2994 RMK A01 T02770185  RH  057%=      5-min Rain = 0
KME1 050321Z 33001KT 28/19 A2994 RMK A01 T02760188  RH  059%=      5-min Rain = 0
KME1 050322Z 34001KT 28/19 A2994 RMK A01 T02760188  RH  059%=      5-min Rain = 0
KME1 050323Z 34002KT 28/19 A2994 RMK A01 T02750187  RH  059%=      5-min Rain = 0
KME1 050324Z 35001KT 27/18 A2994 RMK A01 T02740181  RH  057%=      5-min Rain = 0
KME1 050325Z 35001KT 27/19 A2994 RMK A01 T02740191  RH  060%=      5-min Rain = 0
KME1 050326Z 36001KT 27/19 A2994 RMK A01 T02740190  RH  060%=      5-min Rain = 0
KME1 050327Z 00001KT 27/19 A2994 RMK A01 T02730191  RH  061%=      5-min Rain = 0
KME1 050328Z 35001KT 27/19 A2994 RMK A01 T02730187  RH  059%=      5-min Rain = 0
KME1 050329Z 02001KT 27/19 A2994 RMK A01 T02730185  RH  058%=      5-min Rain = 0
KME1 050330Z 02001KT 27/19 A2994 RMK A01 T02730187  RH  059%=      5-min Rain = 0
KME1 050331Z 01000KT 27/19 A2994 RMK A01 T02730188  RH  060%=      5-min Rain = 0
KME1 050332Z 02000KT 27/18 A2994 RMK A01 T02730183  RH  058%=      5-min Rain = 0
KME1 050333Z 01000KT 27/19 A2994 RMK A01 T02730187  RH  059%=      5-min Rain = 0
KME1 050334Z 02000KT 27/19 A2994 RMK A01 T02720185  RH  059%=      5-min Rain = 0
KME1 050335Z 01000KT 27/19 A2994 RMK A01 T02720191  RH  061%=      5-min Rain = 0
KME1 050336Z 00000KT 27/20 A2994 RMK A01 T02720195  RH  063%=      5-min Rain = 0
KME1 050337Z 00000KT 27/19 A2994 RMK A01 T02710191  RH  062%=      5-min Rain = 0
KME1 050338Z 00000KT 27/19 A2994 RMK A01 T02710190  RH  061%=      5-min Rain = 0
KME1 050339Z 00001KT 27/19 A2994 RMK A01 T02700188  RH  061%=      5-min Rain = 0
KME1 050340Z 00001KT 27/19 A2994 RMK A01 T02700190  RH  062%=      5-min Rain = 0
KME1 050341Z 01000KT 27/19 A2995 RMK A01 T02700193  RH  063%=      5-min Rain = 0
KME1 050342Z 00000KT 27/19 A2995 RMK A01 T02690194  RH  063%=      5-min Rain = 0
KME1 050343Z 00000KT 27/19 A2995 RMK A01 T02690190  RH  062%=      5-min Rain = 0
KME1 050344Z 00000KT 27/19 A2994 RMK A01 T02680191  RH  063%=      5-min Rain = 0
KME1 050345Z 00000KT 27/19 A2995 RMK A01 T02680194  RH  064%=      5-min Rain = 0
KME1 050346Z 00000KT 27/20 A2995 RMK A01 T02680199  RH  066%=      5-min Rain = 0
KME1 050347Z 00000KT 27/19 A2995 RMK A01 T02670194  RH  065%=      5-min Rain = 0
KME1 050348Z 03001KT 27/19 A2995 RMK A01 T02660193  RH  064%=      5-min Rain = 0
KME1 050349Z 08000KT 27/19 A2995 RMK A01 T02660194  RH  065%=      5-min Rain = 0
KME1 050350Z 00000KT 27/20 A2995 RMK A01 T02660195  RH  065%=      5-min Rain = 0
KME1 050351Z 00000KT 27/19 A2995 RMK A01 T02650193  RH  065%=      5-min Rain = 0
KME1 050352Z 00000KT 27/19 A2995 RMK A01 T02650193  RH  065%=      5-min Rain = 0
KME1 050353Z 00000KT 26/19 A2994 RMK A01 T02640193  RH  065%=      5-min Rain = 0
KME1 050354Z 00000KT 26/20 A2994 RMK A01 T02640195  RH  066%=      5-min Rain = 0
KME1 050355Z 00000KT 26/20 A2994 RMK A01 T02630198  RH  067%=      5-min Rain = 0
KME1 050356Z 00000KT 26/20 A2994 RMK A01 T02620195  RH  066%=      5-min Rain = 0
KME1 050357Z 33000KT 26/20 A2994 RMK A01 T02620195  RH  067%=      5-min Rain = 0
KME1 050358Z 00000KT 26/20 A2994 RMK A01 T02610196  RH  067%=      5-min Rain = 0
KME1 050359Z 00000KT 26/19 A2994 RMK A01 T02610193  RH  066%=      5-min Rain = 0
KME1 050400Z 00000KT 26/19 A2994 RMK A01 T02600192  RH  066%=      5-min Rain = 0
KME1 050401Z 00000KT 26/20 A2994 RMK A01 T02610195  RH  067%=      5-min Rain = 0
KME1 050402Z 00000KT 26/20 A2994 RMK A01 T02600197  RH  068%=      5-min Rain = 0
KME1 050403Z 00000KT 26/20 A2994 RMK A01 T02590200  RH  070%=      5-min Rain = 0
KME1 050404Z 00000KT 26/20 A2994 RMK A01 T02580198  RH  069%=      5-min Rain = 0
KME1 050405Z 25000KT 26/19 A2994 RMK A01 T02570194  RH  068%=      5-min Rain = 0
KME1 050406Z 25000KT 26/19 A2994 RMK A01 T02560193  RH  068%=      5-min Rain = 0
KME1 050407Z 00000KT 26/19 A2994 RMK A01 T02560191  RH  067%=      5-min Rain = 0
KME1 050408Z 00000KT 26/19 A2994 RMK A01 T02560192  RH  067%=      5-min Rain = 0
KME1 050409Z 00000KT 26/19 A2994 RMK A01 T02560190  RH  067%=      5-min Rain = 0
KME1 050410Z 00000KT 26/18 A2994 RMK A01 T02560183  RH  064%=      5-min Rain = 0
KME1 050411Z 00000KT 26/18 A2994 RMK A01 T02560183  RH  064%=      5-min Rain = 0
KME1 050412Z 00000KT 26/19 A2994 RMK A01 T02570189  RH  066%=      5-min Rain = 0
KME1 050413Z 00000KT 26/19 A2994 RMK A01 T02570190  RH  067%=      5-min Rain = 0
KME1 050414Z 00000KT 26/19 A2994 RMK A01 T02570191  RH  067%=      5-min Rain = 0
KME1 050415Z 00000KT 26/19 A2994 RMK A01 T02570190  RH  066%=      5-min Rain = 0
KME1 050416Z 00000KT 26/19 A2994 RMK A01 T02570187  RH  065%=      5-min Rain = 0
KME1 050417Z 23000KT 26/19 A2994 RMK A01 T02560188  RH  066%=      5-min Rain = 0
KME1 050418Z 23000KT 26/19 A2994 RMK A01 T02560192  RH  068%=      5-min Rain = 0
KME1 050419Z 23001KT 26/19 A2994 RMK A01 T02550192  RH  068%=      5-min Rain = 0
KME1 050420Z 24002KT 25/19 A2994 RMK A01 T02530185  RH  066%=      5-min Rain = 0
KME1 050421Z 24002KT 25/17 A2994 RMK A01 T02520169  RH  060%=      5-min Rain = 0
KME1 050422Z 24002KT 26/17 A2994 RMK A01 T02560171  RH  059%=      5-min Rain = 0
KME1 050423Z 25002KT 26/19 A2994 RMK A01 T02590187  RH  065%=      5-min Rain = 0
KME1 050424Z 23002KT 26/19 A2994 RMK A01 T02580186  RH  065%=      5-min Rain = 0
KME1 050425Z 23003KT 26/18 A2994 RMK A01 T02570179  RH  062%=      5-min Rain = 0
KME1 050426Z 21003KT 26/18 A2994 RMK A01 T02560176  RH  061%=      5-min Rain = 0
KME1 050427Z 21003KT 26/17 A2994 RMK A01 T02570171  RH  059%=      5-min Rain = 0
KME1 050428Z 23003KT 26/17 A2994 RMK A01 T02590171  RH  058%=      5-min Rain = 0
KME1 050429Z 24003KT 26/18 A2994 RMK A01 T02600178  RH  061%=      5-min Rain = 0
KME1 050430Z 23003KT 26/18 A2994 RMK A01 T02600177  RH  060%=      5-min Rain = 0
KME1 050431Z 23002KT 26/18 A2994 RMK A01 T02600180  RH  061%=      5-min Rain = 0
KME1 050432Z 21002KT 26/19 A2994 RMK A01 T02580188  RH  065%=      5-min Rain = 0
KME1 050433Z 23002KT 26/18 A2994 RMK A01 T02560182  RH  064%=      5-min Rain = 0
KME1 050434Z 24001KT 26/18 A2994 RMK A01 T02550182  RH  064%=      5-min Rain = 0
KME1 050435Z 24001KT 25/19 A2994 RMK A01 T02540186  RH  066%=      5-min Rain = 0
KME1 050436Z 24002KT 25/18 A2994 RMK A01 T02530184  RH  065%=      5-min Rain = 0
KME1 050437Z 24001KT 25/19 A2994 RMK A01 T02520188  RH  068%=      5-min Rain = 0
KME1 050438Z 24002KT 25/18 A2994 RMK A01 T02500177  RH  064%=      5-min Rain = 0
KME1 050439Z 24002KT 25/18 A2994 RMK A01 T02500176  RH  063%=      5-min Rain = 0
KME1 050440Z 23001KT 25/18 A2994 RMK A01 T02510179  RH  064%=      5-min Rain = 0
KME1 050441Z 24001KT 25/18 A2994 RMK A01 T02520180  RH  064%=      5-min Rain = 0
KME1 050442Z 23002KT 25/18 A2994 RMK A01 T02520180  RH  064%=      5-min Rain = 0
KME1 050443Z 22002KT 25/18 A2994 RMK A01 T02520176  RH  063%=      5-min Rain = 0
KME1 050444Z 22002KT 25/18 A2994 RMK A01 T02520180  RH  064%=      5-min Rain = 0
KME1 050445Z 22002KT 25/18 A2994 RMK A01 T02520178  RH  064%=      5-min Rain = 0
KME1 050446Z 21003KT 25/17 A2994 RMK A01 T02530171  RH  060%=      5-min Rain = 0
KME1 050447Z 21002KT 25/17 A2994 RMK A01 T02540174  RH  061%=      5-min Rain = 0
KME1 050448Z 20003KT 25/17 A2993 RMK A01 T02540170  RH  059%=      5-min Rain = 0
KME1 050449Z 21002KT 26/18 A2993 RMK A01 T02550178  RH  062%=      5-min Rain = 0
KME1 050450Z 21003KT 26/18 A2993 RMK A01 T02550180  RH  063%=      5-min Rain = 0
KME1 050451Z 22003KT 26/18 A2993 RMK A01 T02550181  RH  063%=      5-min Rain = 0
KME1 050452Z 21003KT 26/18 A2993 RMK A01 T02550180  RH  063%=      5-min Rain = 0
KME1 050453Z 21003KT 25/17 A2993 RMK A01 T02540172  RH  060%=      5-min Rain = 0
KME1 050454Z 23003KT 25/17 A2993 RMK A01 T02540170  RH  060%=      5-min Rain = 0
KME1 050455Z 23003KT 25/18 A2993 RMK A01 T02540175  RH  062%=      5-min Rain = 0
KME1 050456Z 24003KT 25/18 A2993 RMK A01 T02540176  RH  062%=      5-min Rain = 0
KME1 050457Z 24003KT 25/17 A2993 RMK A01 T02530173  RH  061%=      5-min Rain = 0
KME1 050458Z 22002KT 25/19 A2993 RMK A01 T02530185  RH  066%=      5-min Rain = 0
KME1 050459Z 22003KT 25/19 A2993 RMK A01 T02520187  RH  067%=      5-min Rain = 0

Page generated in 0.1279 seconds.